Observation data for Claude 12 Southwest on 08/14/2019      Previous  Date  Next       Current Mesonet Observations  Soil Data  Daily Summary Page  Observations in Plain Language
KCL1 140500Z 07009KT 23/18 A3018 RMK A01 T02270183  RH  076%=      5-min Rain = 0
KCL1 140501Z 07009KT 23/18 A3018 RMK A01 T02270183  RH  076%=      5-min Rain = 0
KCL1 140502Z 07009KT 23/18 A3018 RMK A01 T02260183  RH  077%=      5-min Rain = 0
KCL1 140503Z 07009KT 23/18 A3019 RMK A01 T02260183  RH  077%=      5-min Rain = 0
KCL1 140504Z 07009KT 23/18 A3019 RMK A01 T02260184  RH  077%=      5-min Rain = 0
KCL1 140505Z 07009KT 23/18 A3019 RMK A01 T02260184  RH  077%=      5-min Rain = 0
KCL1 140506Z 07009KT 23/18 A3019 RMK A01 T02250184  RH  077%=      5-min Rain = 0
KCL1 140507Z 07009KT 23/18 A3019 RMK A01 T02250184  RH  077%=      5-min Rain = 0
KCL1 140508Z 07009KT 23/18 A3019 RMK A01 T02250184  RH  077%=      5-min Rain = 0
KCL1 140509Z 07009KT 23/18 A3019 RMK A01 T02250184  RH  077%=      5-min Rain = 0
KCL1 140510Z 06010KT 23/18 A3019 RMK A01 T02250184  RH  078%=      5-min Rain = 0
KCL1 140524Z 06008KT 22/19 A302 RMK A01 T02210186  RH  080%=      5-min Rain = 0
KCL1 140525Z 05009KT 22/19 A302 RMK A01 T02210186  RH  081%=      5-min Rain = 0
KCL1 140526Z 05009KT 22/19 A302 RMK A01 T02200187  RH  082%=      5-min Rain = 0
KCL1 140527Z 06009KT 22/19 A3021 RMK A01 T02190188  RH  082%=      5-min Rain = 0
KCL1 140528Z 06009KT 22/19 A3021 RMK A01 T02180188  RH  083%=      5-min Rain = 0
KCL1 140529Z 06009KT 22/19 A3021 RMK A01 T02170188  RH  084%=      5-min Rain = 0
KCL1 140530Z 06010KT 22/19 A3021 RMK A01 T02160189  RH  084%=      5-min Rain = 0
KCL1 140531Z 06009KT 22/19 A3021 RMK A01 T02160189  RH  085%=      5-min Rain = 0
KCL1 140532Z 06009KT 22/19 A3021 RMK A01 T02160190  RH  085%=      5-min Rain = 0
KCL1 140533Z 06008KT 22/19 A3021 RMK A01 T02160190  RH  085%=      5-min Rain = 0
KCL1 140534Z 06008KT 22/19 A3021 RMK A01 T02150190  RH  085%=      5-min Rain = 0
KCL1 140535Z 06008KT 22/19 A302 RMK A01 T02150190  RH  085%=      5-min Rain = 0
KCL1 140536Z 06009KT 22/19 A302 RMK A01 T02150190  RH  085%=      5-min Rain = 0
KCL1 140537Z 06009KT 22/19 A302 RMK A01 T02150190  RH  085%=      5-min Rain = 0
KCL1 140538Z 06008KT 22/19 A302 RMK A01 T02150189  RH  085%=      5-min Rain = 0
KCL1 140539Z 06008KT 22/19 A302 RMK A01 T02150189  RH  085%=      5-min Rain = 0
KCL1 140540Z 06008KT 22/19 A302 RMK A01 T02160189  RH  085%=      5-min Rain = 0
KCL1 140541Z 06008KT 22/19 A302 RMK A01 T02160188  RH  084%=      5-min Rain = 0
KCL1 140542Z 06007KT 22/19 A302 RMK A01 T02160188  RH  084%=      5-min Rain = 0
KCL1 140543Z 06008KT 22/19 A302 RMK A01 T02160188  RH  084%=      5-min Rain = 0
KCL1 140544Z 06007KT 22/19 A302 RMK A01 T02160188  RH  084%=      5-min Rain = 0
KCL1 140545Z 06007KT 22/19 A302 RMK A01 T02160188  RH  084%=      5-min Rain = 0
KCL1 140546Z 06008KT 22/19 A302 RMK A01 T02160188  RH  084%=      5-min Rain = 0
KCL1 140547Z 06008KT 22/19 A302 RMK A01 T02160187  RH  083%=      5-min Rain = 0
KCL1 140548Z 06009KT 22/19 A302 RMK A01 T02170187  RH  083%=      5-min Rain = 0
KCL1 140549Z 06009KT 22/19 A302 RMK A01 T02170186  RH  083%=      5-min Rain = 0
KCL1 140550Z 06009KT 22/19 A302 RMK A01 T02180186  RH  082%=      5-min Rain = 0
KCL1 140551Z 06009KT 22/19 A3021 RMK A01 T02190186  RH  081%=      5-min Rain = 0
KCL1 140552Z 06010KT 22/19 A3021 RMK A01 T02200186  RH  081%=      5-min Rain = 0
KCL1 140553Z 06009KT 22/19 A3021 RMK A01 T02200186  RH  081%=      5-min Rain = 0
KCL1 140554Z 06009KT 22/19 A3021 RMK A01 T02200185  RH  081%=      5-min Rain = 0
KCL1 140555Z 06010KT 22/19 A302 RMK A01 T02210186  RH  081%=      5-min Rain = 0
KCL1 140556Z 06009KT 22/19 A302 RMK A01 T02210186  RH  081%=      5-min Rain = 0
KCL1 140557Z 06009KT 22/19 A302 RMK A01 T02200186  RH  081%=      5-min Rain = 0
KCL1 140558Z 06009KT 22/19 A302 RMK A01 T02200186  RH  081%=      5-min Rain = 0
KCL1 140559Z 06008KT 22/19 A302 RMK A01 T02200187  RH  081%=      5-min Rain = 0
KCL1 140600Z 06009KT 22/19 A302 RMK A01 T02200187  RH  082%=      5-min Rain = 0
KCL1 140601Z 06009KT 22/19 A302 RMK A01 T02200187  RH  082%=      5-min Rain = 0
KCL1 140602Z 06009KT 22/19 A302 RMK A01 T02190187  RH  082%=      5-min Rain = 0
KCL1 140603Z 07010KT 22/19 A302 RMK A01 T02190187  RH  082%=      5-min Rain = 0
KCL1 140604Z 07008KT 22/19 A302 RMK A01 T02190187  RH  082%=      5-min Rain = 0
KCL1 140605Z 07009KT 22/19 A302 RMK A01 T02190187  RH  082%=      5-min Rain = 0
KCL1 140606Z 07009KT 22/19 A302 RMK A01 T02190187  RH  082%=      5-min Rain = 0
KCL1 140607Z 08009KT 22/19 A302 RMK A01 T02190187  RH  082%=      5-min Rain = 0
KCL1 140608Z 08009KT 22/19 A302 RMK A01 T02190187  RH  082%=      5-min Rain = 0
KCL1 140609Z 08008KT 22/19 A302 RMK A01 T02180188  RH  083%=      5-min Rain = 0
KCL1 140610Z 08008KT 22/19 A302 RMK A01 T02180188  RH  083%=      5-min Rain = 0
KCL1 140611Z 08008KT 22/19 A302 RMK A01 T02170188  RH  083%=      5-min Rain = 0
KCL1 140612Z 08008KT 22/19 A302 RMK A01 T02170188  RH  083%=      5-min Rain = 0
KCL1 140613Z 09007KT 22/19 A302 RMK A01 T02170188  RH  083%=      5-min Rain = 0
KCL1 140614Z 08007KT 22/19 A302 RMK A01 T02170187  RH  083%=      5-min Rain = 0
KCL1 140615Z 08007KT 22/19 A302 RMK A01 T02170188  RH  084%=      5-min Rain = 0
KCL1 140616Z 09007KT 22/19 A302 RMK A01 T02160188  RH  084%=      5-min Rain = 0
KCL1 140617Z 08007KT 22/19 A302 RMK A01 T02160188  RH  084%=      5-min Rain = 0
KCL1 140618Z 09006KT 22/19 A302 RMK A01 T02160188  RH  084%=      5-min Rain = 0
KCL1 140619Z 09006KT 22/19 A302 RMK A01 T02150188  RH  084%=      5-min Rain = 0
KCL1 140620Z 09006KT 22/19 A302 RMK A01 T02150188  RH  085%=      5-min Rain = 0
KCL1 140621Z 09007KT 21/19 A302 RMK A01 T02140189  RH  085%=      5-min Rain = 0
KCL1 140622Z 09006KT 21/19 A302 RMK A01 T02130189  RH  086%=      5-min Rain = 0
KCL1 140623Z 09007KT 21/19 A302 RMK A01 T02120189  RH  087%=      5-min Rain = 0
KCL1 140624Z 09007KT 21/19 A302 RMK A01 T02120190  RH  087%=      5-min Rain = 0
KCL1 140625Z 09007KT 21/19 A302 RMK A01 T02110191  RH  088%=      5-min Rain = 0
KCL1 140626Z 09007KT 21/19 A302 RMK A01 T02100191  RH  089%=      5-min Rain = 0
KCL1 140627Z 09007KT 21/19 A302 RMK A01 T02090192  RH  089%=      5-min Rain = 0
KCL1 140628Z 09008KT 21/19 A302 RMK A01 T02090192  RH  090%=      5-min Rain = 0
KCL1 140629Z 09008KT 21/19 A302 RMK A01 T02090193  RH  091%=      5-min Rain = 0
KCL1 140630Z 09008KT 21/19 A302 RMK A01 T02080193  RH  091%=      5-min Rain = 0
KCL1 140631Z 08008KT 21/19 A302 RMK A01 T02080193  RH  091%=      5-min Rain = 0
KCL1 140632Z 07009KT 21/19 A302 RMK A01 T02080193  RH  091%=      5-min Rain = 0
KCL1 140633Z 05011KT 21/19 A3021 RMK A01 T02080194  RH  092%=      5-min Rain = 0
KCL1 140634Z 05015KT 21/19 A3021 RMK A01 T02080194  RH  092%=      5-min Rain = 0
KCL1 140635Z 05015KT 21/19 A3021 RMK A01 T02110193  RH  089%=      5-min Rain = 0
KCL1 140636Z 04015G21KT 21/19 A3021 RMK A01 T02140191  RH  086%=      5-min Rain = 0
KCL1 140637Z 05014G22KT 22/19 A3021 RMK A01 T02150189  RH  085%=      5-min Rain = 0
KCL1 140638Z 05016G22KT 21/19 A3021 RMK A01 T02140185  RH  083%=      5-min Rain = 0
KCL1 140639Z 05017KT 21/18 A3021 RMK A01 T02130181  RH  082%=      5-min Rain = 0
KCL1 140640Z 05018G23KT 21/18 A3021 RMK A01 T02110177  RH  081%=      5-min Rain = 0
KCL1 140641Z 05014G19KT 21/17 A3021 RMK A01 T02090174  RH  080%=      5-min Rain = 0
KCL1 140642Z 05016KT 21/17 A3021 RMK A01 T02080173  RH  080%=      5-min Rain = 0
KCL1 140643Z 05015KT 21/17 A3021 RMK A01 T02070172  RH  080%=      5-min Rain = 0
KCL1 140644Z 06015KT 21/17 A3021 RMK A01 T02060170  RH  080%=      5-min Rain = 0
KCL1 140645Z 05016G22KT 21/17 A3021 RMK A01 T02060169  RH  079%=      5-min Rain = 0
KCL1 140646Z 06017KT 21/17 A3021 RMK A01 T02060166  RH  078%=      5-min Rain = 0
KCL1 140647Z 06012KT 21/17 A3021 RMK A01 T02060166  RH  078%=      5-min Rain = 0
KCL1 140648Z 05012KT 21/17 A3021 RMK A01 T02050166  RH  078%=      5-min Rain = 0
KCL1 140649Z 05017G22KT 20/16 A3021 RMK A01 T02040163  RH  077%=      5-min Rain = 0
KCL1 140650Z 06018KT 20/16 A3021 RMK A01 T02040160  RH  076%=      5-min Rain = 0
KCL1 140651Z 05018KT 20/16 A302 RMK A01 T02030158  RH  075%=      5-min Rain = 0
KCL1 140652Z 05015KT 20/16 A302 RMK A01 T02030157  RH  075%=      5-min Rain = 0
KCL1 140653Z 05015KT 20/16 A3021 RMK A01 T02020156  RH  075%=      5-min Rain = 0
KCL1 140654Z 06014KT 20/16 A3021 RMK A01 T02010156  RH  075%=      5-min Rain = 0
KCL1 140655Z 05013KT 20/16 A3021 RMK A01 T02000156  RH  075%=      5-min Rain = 0
KCL1 140656Z 05014KT 20/16 A3021 RMK A01 T01990155  RH  076%=      5-min Rain = 0
KCL1 140657Z 05014KT 20/16 A3021 RMK A01 T01990155  RH  076%=      5-min Rain = 0
KCL1 140658Z 04014KT 20/16 A3021 RMK A01 T01990155  RH  076%=      5-min Rain = 0
KCL1 140659Z 05014KT 20/15 A3021 RMK A01 T01980154  RH  076%=      5-min Rain = 0
KCL1 140700Z 05014KT 20/15 A3021 RMK A01 T01970154  RH  076%=      5-min Rain = 0
KCL1 140701Z 05013KT 20/15 A3021 RMK A01 T01970153  RH  076%=      5-min Rain = 0
KCL1 140702Z 05016KT 20/15 A3021 RMK A01 T01970152  RH  075%=      5-min Rain = 0
KCL1 140703Z 05012KT 20/15 A3021 RMK A01 T01970151  RH  075%=      5-min Rain = 0
KCL1 140704Z 05015KT 20/15 A3021 RMK A01 T01960151  RH  075%=      5-min Rain = 0
KCL1 140705Z 05014KT 20/15 A3021 RMK A01 T01960149  RH  075%=      5-min Rain = 0
KCL1 140706Z 06015KT 20/15 A3021 RMK A01 T01960149  RH  074%=      5-min Rain = 0
KCL1 140707Z 05015KT 20/15 A3021 RMK A01 T01960148  RH  074%=      5-min Rain = 0
KCL1 140708Z 05014KT 20/15 A3021 RMK A01 T01950148  RH  074%=      5-min Rain = 0
KCL1 140709Z 05012KT 20/15 A3021 RMK A01 T01950148  RH  074%=      5-min Rain = 0
KCL1 140710Z 05014KT 19/15 A3021 RMK A01 T01940148  RH  075%=      5-min Rain = 0
KCL1 140711Z 05016KT 19/15 A3021 RMK A01 T01940147  RH  074%=      5-min Rain = 0
KCL1 140712Z 05014KT 19/15 A3021 RMK A01 T01940147  RH  074%=      5-min Rain = 0
KCL1 140713Z 05013KT 19/15 A3021 RMK A01 T01940147  RH  074%=      5-min Rain = 0
KCL1 140714Z 05015KT 19/15 A3021 RMK A01 T01940147  RH  074%=      5-min Rain = 0
KCL1 140715Z 05014KT 19/15 A3021 RMK A01 T01930147  RH  074%=      5-min Rain = 0
KCL1 140716Z 05013KT 19/15 A3021 RMK A01 T01930147  RH  075%=      5-min Rain = 0
KCL1 140717Z 05012KT 19/15 A3021 RMK A01 T01930147  RH  075%=      5-min Rain = 0
KCL1 140718Z 05011KT 19/15 A3021 RMK A01 T01920148  RH  075%=      5-min Rain = 0
KCL1 140719Z 04012KT 19/15 A3021 RMK A01 T01910147  RH  076%=      5-min Rain = 0
KCL1 140720Z 05012KT 19/15 A3021 RMK A01 T01900148  RH  076%=      5-min Rain = 0
KCL1 140721Z 04012KT 19/15 A3021 RMK A01 T01900148  RH  076%=      5-min Rain = 0
KCL1 140722Z 04013KT 19/15 A3021 RMK A01 T01900148  RH  077%=      5-min Rain = 0
KCL1 140723Z 04014KT 19/15 A3021 RMK A01 T01900148  RH  077%=      5-min Rain = 0
KCL1 140724Z 04014KT 19/15 A3021 RMK A01 T01900148  RH  077%=      5-min Rain = 0
KCL1 140725Z 04013KT 19/15 A3021 RMK A01 T01900147  RH  076%=      5-min Rain = 0
KCL1 140726Z 05011KT 19/15 A3021 RMK A01 T01890147  RH  076%=      5-min Rain = 0
KCL1 140727Z 04011G16KT 19/15 A3021 RMK A01 T01890147  RH  076%=      5-min Rain = 0
KCL1 140728Z 04013KT 19/15 A3021 RMK A01 T01890146  RH  076%=      5-min Rain = 0
KCL1 140729Z 04014KT 19/15 A3021 RMK A01 T01890145  RH  076%=      5-min Rain = 0
KCL1 140730Z 04014KT 19/14 A3021 RMK A01 T01890144  RH  075%=      5-min Rain = 0
KCL1 140731Z 04013KT 19/14 A3021 RMK A01 T01890144  RH  075%=      5-min Rain = 0
KCL1 140732Z 05011KT 19/14 A3021 RMK A01 T01890144  RH  075%=      5-min Rain = 0
KCL1 140733Z 04012KT 19/14 A3021 RMK A01 T01880144  RH  076%=      5-min Rain = 0
KCL1 140734Z 05012KT 19/15 A3021 RMK A01 T01870145  RH  076%=      5-min Rain = 0
KCL1 140735Z 04012KT 19/15 A3021 RMK A01 T01870145  RH  076%=      5-min Rain = 0
KCL1 140736Z 05012KT 19/15 A3021 RMK A01 T01860145  RH  077%=      5-min Rain = 0
KCL1 140737Z 05012KT 19/14 A302 RMK A01 T01860144  RH  076%=      5-min Rain = 0
KCL1 140738Z 05014KT 19/14 A3021 RMK A01 T01860143  RH  076%=      5-min Rain = 0
KCL1 140739Z 05017KT 19/14 A3021 RMK A01 T01860141  RH  075%=      5-min Rain = 0
KCL1 140740Z 05015KT 19/14 A302 RMK A01 T01870141  RH  075%=      5-min Rain = 0
KCL1 140741Z 05014KT 19/14 A302 RMK A01 T01870141  RH  074%=      5-min Rain = 0
KCL1 140742Z 05016KT 19/14 A302 RMK A01 T01870140  RH  074%=      5-min Rain = 0
KCL1 140743Z 05013G18KT 19/14 A302 RMK A01 T01870140  RH  074%=      5-min Rain = 0
KCL1 140744Z 05013G18KT 19/14 A302 RMK A01 T01870140  RH  074%=      5-min Rain = 0
KCL1 140745Z 04015KT 19/14 A3021 RMK A01 T01860139  RH  074%=      5-min Rain = 0
KCL1 140746Z 04016KT 19/14 A3021 RMK A01 T01860139  RH  074%=      5-min Rain = 0
KCL1 140747Z 04015KT 19/14 A3021 RMK A01 T01860138  RH  074%=      5-min Rain = 0
KCL1 140748Z 05014KT 19/14 A302 RMK A01 T01860138  RH  073%=      5-min Rain = 0
KCL1 140749Z 05013KT 19/14 A3021 RMK A01 T01860137  RH  073%=      5-min Rain = 0
KCL1 140750Z 04012KT 19/14 A302 RMK A01 T01860137  RH  073%=      5-min Rain = 0
KCL1 140751Z 04015KT 19/14 A302 RMK A01 T01850137  RH  073%=      5-min Rain = 0
KCL1 140752Z 04014KT 19/14 A302 RMK A01 T01850136  RH  073%=      5-min Rain = 0
KCL1 140753Z 04015KT 19/14 A302 RMK A01 T01850135  RH  073%=      5-min Rain = 0
KCL1 140754Z 05014KT 19/14 A302 RMK A01 T01850135  RH  073%=      5-min Rain = 0
KCL1 140755Z 05013KT 19/14 A302 RMK A01 T01850135  RH  073%=      5-min Rain = 0
KCL1 140756Z 04014KT 19/14 A302 RMK A01 T01850135  RH  073%=      5-min Rain = 0
KCL1 140757Z 05013G18KT 18/13 A3021 RMK A01 T01840134  RH  073%=      5-min Rain = 0
KCL1 140758Z 04014KT 18/13 A3021 RMK A01 T01840134  RH  073%=      5-min Rain = 0
KCL1 140759Z 04014KT 18/13 A3021 RMK A01 T01840134  RH  072%=      5-min Rain = 0
KCL1 140800Z 04013KT 18/13 A3021 RMK A01 T01840134  RH  072%=      5-min Rain = 0
KCL1 140801Z 04014KT 18/13 A3021 RMK A01 T01840133  RH  072%=      5-min Rain = 0
KCL1 140802Z 04016G22KT 18/13 A3021 RMK A01 T01840132  RH  072%=      5-min Rain = 0
KCL1 140803Z 04014KT 18/13 A3021 RMK A01 T01840132  RH  072%=      5-min Rain = 0
KCL1 140804Z 04013KT 18/13 A302 RMK A01 T01840132  RH  072%=      5-min Rain = 0
KCL1 140805Z 05013KT 18/13 A302 RMK A01 T01840132  RH  072%=      5-min Rain = 0
KCL1 140806Z 04014KT 18/13 A302 RMK A01 T01840132  RH  072%=      5-min Rain = 0
KCL1 140807Z 05013G19KT 18/13 A302 RMK A01 T01830131  RH  072%=      5-min Rain = 0
KCL1 140808Z 05016KT 18/13 A302 RMK A01 T01840132  RH  072%=      5-min Rain = 0
KCL1 140809Z 05015KT 18/13 A302 RMK A01 T01840131  RH  071%=      5-min Rain = 0
KCL1 140810Z 05012KT 18/13 A302 RMK A01 T01840131  RH  071%=      5-min Rain = 0
KCL1 140811Z 04013KT 18/13 A302 RMK A01 T01840131  RH  072%=      5-min Rain = 0
KCL1 140812Z 04014KT 18/13 A302 RMK A01 T01830131  RH  072%=      5-min Rain = 0
KCL1 140813Z 04014KT 18/13 A302 RMK A01 T01830131  RH  072%=      5-min Rain = 0
KCL1 140814Z 04014KT 18/13 A302 RMK A01 T01830131  RH  072%=      5-min Rain = 0
KCL1 140815Z 04014KT 18/13 A302 RMK A01 T01830131  RH  072%=      5-min Rain = 0
KCL1 140816Z 04013KT 18/13 A302 RMK A01 T01830131  RH  072%=      5-min Rain = 0
KCL1 140817Z 04013KT 18/13 A302 RMK A01 T01820131  RH  072%=      5-min Rain = 0
KCL1 140818Z 04014KT 18/13 A302 RMK A01 T01820130  RH  072%=      5-min Rain = 0
KCL1 140819Z 04014KT 18/13 A302 RMK A01 T01820130  RH  072%=      5-min Rain = 0
KCL1 140820Z 04013KT 18/13 A302 RMK A01 T01820130  RH  072%=      5-min Rain = 0
KCL1 140821Z 04013KT 18/13 A302 RMK A01 T01820130  RH  072%=      5-min Rain = 0
KCL1 140822Z 05013KT 18/13 A302 RMK A01 T01820130  RH  072%=      5-min Rain = 0
KCL1 140823Z 04011KT 18/13 A302 RMK A01 T01820131  RH  072%=      5-min Rain = 0
KCL1 140824Z 04014KT 18/13 A302 RMK A01 T01820130  RH  072%=      5-min Rain = 0
KCL1 140825Z 04012KT 18/13 A302 RMK A01 T01820131  RH  072%=      5-min Rain = 0
KCL1 140826Z 04016KT 18/13 A302 RMK A01 T01820130  RH  072%=      5-min Rain = 0
KCL1 140827Z 04015KT 18/13 A302 RMK A01 T01820129  RH  071%=      5-min Rain = 0
KCL1 140828Z 04012KT 18/13 A302 RMK A01 T01830130  RH  071%=      5-min Rain = 0
KCL1 140829Z 04013KT 18/13 A302 RMK A01 T01830130  RH  071%=      5-min Rain = 0
KCL1 140830Z 04013KT 18/13 A302 RMK A01 T01830130  RH  071%=      5-min Rain = 0
KCL1 140831Z 04013KT 18/13 A302 RMK A01 T01820130  RH  072%=      5-min Rain = 0
KCL1 140832Z 04012KT 18/13 A302 RMK A01 T01820130  RH  072%=      5-min Rain = 0
KCL1 140833Z 04014KT 18/13 A302 RMK A01 T01820130  RH  072%=      5-min Rain = 0
KCL1 140834Z 05014KT 18/13 A302 RMK A01 T01810129  RH  072%=      5-min Rain = 0
KCL1 140835Z 04013KT 18/13 A302 RMK A01 T01820130  RH  071%=      5-min Rain = 0
KCL1 140836Z 05011KT 18/13 A302 RMK A01 T01820130  RH  071%=      5-min Rain = 0
KCL1 140837Z 04013KT 18/13 A302 RMK A01 T01820130  RH  072%=      5-min Rain = 0
KCL1 140838Z 04013KT 18/13 A302 RMK A01 T01820130  RH  072%=      5-min Rain = 0
KCL1 140839Z 04011KT 18/13 A302 RMK A01 T01820130  RH  072%=      5-min Rain = 0
KCL1 140840Z 04011KT 18/13 A302 RMK A01 T01820130  RH  072%=      5-min Rain = 0
KCL1 140841Z 05011KT 18/13 A302 RMK A01 T01810129  RH  072%=      5-min Rain = 0
KCL1 140842Z 04012KT 18/13 A302 RMK A01 T01810130  RH  072%=      5-min Rain = 0
KCL1 140843Z 05012KT 18/13 A302 RMK A01 T01810129  RH  071%=      5-min Rain = 0
KCL1 140844Z 05012G17KT 18/13 A302 RMK A01 T01820129  RH  071%=      5-min Rain = 0
KCL1 140845Z 05011KT 18/13 A302 RMK A01 T01820129  RH  071%=      5-min Rain = 0
KCL1 140846Z 05011KT 18/13 A302 RMK A01 T01820129  RH  071%=      5-min Rain = 0
KCL1 140847Z 05010KT 18/13 A302 RMK A01 T01820129  RH  071%=      5-min Rain = 0
KCL1 140848Z 05011KT 18/13 A302 RMK A01 T01820129  RH  071%=      5-min Rain = 0
KCL1 140849Z 05012KT 18/13 A302 RMK A01 T01820129  RH  071%=      5-min Rain = 0
KCL1 140850Z 05011KT 18/13 A302 RMK A01 T01820129  RH  071%=      5-min Rain = 0
KCL1 140851Z 05010KT 18/13 A302 RMK A01 T01820128  RH  071%=      5-min Rain = 0
KCL1 140852Z 04011KT 18/13 A302 RMK A01 T01820128  RH  071%=      5-min Rain = 0
KCL1 140853Z 05011KT 18/13 A302 RMK A01 T01830128  RH  071%=      5-min Rain = 0
KCL1 140854Z 05012KT 18/13 A302 RMK A01 T01830128  RH  070%=      5-min Rain = 0
KCL1 140855Z 05011KT 18/13 A302 RMK A01 T01830128  RH  070%=      5-min Rain = 0
KCL1 140856Z 04012KT 18/13 A302 RMK A01 T01840128  RH  070%=      5-min Rain = 0
KCL1 140857Z 04012KT 18/13 A302 RMK A01 T01840128  RH  070%=      5-min Rain = 0
KCL1 140858Z 05011KT 18/13 A302 RMK A01 T01840128  RH  070%=      5-min Rain = 0
KCL1 140859Z 04011KT 18/13 A302 RMK A01 T01840129  RH  070%=      5-min Rain = 0
KCL1 140900Z 05012KT 18/13 A302 RMK A01 T01840128  RH  070%=      5-min Rain = 0
KCL1 140901Z 04013KT 18/13 A302 RMK A01 T01840128  RH  070%=      5-min Rain = 0
KCL1 140902Z 04013KT 18/13 A302 RMK A01 T01840128  RH  070%=      5-min Rain = 0
KCL1 140903Z 04013KT 19/13 A302 RMK A01 T01850128  RH  069%=      5-min Rain = 0
KCL1 140904Z 04012KT 19/13 A302 RMK A01 T01850128  RH  069%=      5-min Rain = 0
KCL1 140905Z 04011KT 19/13 A3021 RMK A01 T01850128  RH  069%=      5-min Rain = 0
KCL1 140906Z 04012KT 19/13 A3021 RMK A01 T01860128  RH  069%=      5-min Rain = 0
KCL1 140907Z 04011KT 19/13 A3021 RMK A01 T01860128  RH  069%=      5-min Rain = 0
KCL1 140908Z 03012KT 19/13 A3021 RMK A01 T01860128  RH  069%=      5-min Rain = 0
KCL1 140909Z 03013KT 19/13 A3021 RMK A01 T01860128  RH  069%=      5-min Rain = 0
KCL1 140910Z 03012KT 19/13 A3021 RMK A01 T01860128  RH  069%=      5-min Rain = 0
KCL1 140911Z 03012KT 19/13 A3022 RMK A01 T01870128  RH  069%=      5-min Rain = 0
KCL1 140912Z 03011KT 19/13 A3022 RMK A01 T01870128  RH  068%=      5-min Rain = 0
KCL1 140913Z 04011KT 19/13 A3022 RMK A01 T01870128  RH  068%=      5-min Rain = 0
KCL1 140914Z 03012KT 19/13 A3022 RMK A01 T01880128  RH  068%=      5-min Rain = 0
KCL1 140915Z 03012KT 19/13 A3022 RMK A01 T01880128  RH  068%=      5-min Rain = 0
KCL1 140916Z 03009KT 19/13 A3022 RMK A01 T01880128  RH  068%=      5-min Rain = 0
KCL1 140917Z 03010G15KT 19/13 A3022 RMK A01 T01880128  RH  068%=      5-min Rain = 0
KCL1 140918Z 03011KT 19/13 A3022 RMK A01 T01880128  RH  068%=      5-min Rain = 0
KCL1 140919Z 02012KT 19/13 A3022 RMK A01 T01880127  RH  068%=      5-min Rain = 0
KCL1 140920Z 03010KT 19/13 A3022 RMK A01 T01880128  RH  068%=      5-min Rain = 0
KCL1 140921Z 03011KT 19/13 A3022 RMK A01 T01880127  RH  068%=      5-min Rain = 0
KCL1 140922Z 03010KT 19/13 A3022 RMK A01 T01880128  RH  068%=      5-min Rain = 0
KCL1 140923Z 03010KT 19/13 A3022 RMK A01 T01880128  RH  068%=      5-min Rain = 0
KCL1 140924Z 03011KT 19/13 A3022 RMK A01 T01880128  RH  068%=      5-min Rain = 0
KCL1 140925Z 03011KT 19/13 A3022 RMK A01 T01880128  RH  068%=      5-min Rain = 0
KCL1 140926Z 03010KT 19/13 A3022 RMK A01 T01880128  RH  068%=      5-min Rain = 0
KCL1 140927Z 03011KT 19/13 A3022 RMK A01 T01870128  RH  068%=      5-min Rain = 0
KCL1 140928Z 03011KT 19/13 A3022 RMK A01 T01870128  RH  068%=      5-min Rain = 0
KCL1 140929Z 03011KT 19/13 A3022 RMK A01 T01870128  RH  068%=      5-min Rain = 0
KCL1 140930Z 03011KT 19/13 A3023 RMK A01 T01870128  RH  068%=      5-min Rain = 0
KCL1 140931Z 03010KT 19/13 A3023 RMK A01 T01870128  RH  069%=      5-min Rain = 0
KCL1 140932Z 03011KT 19/13 A3023 RMK A01 T01860128  RH  069%=      5-min Rain = 0
KCL1 140933Z 03010KT 19/13 A3023 RMK A01 T01870128  RH  069%=      5-min Rain = 0
KCL1 140934Z 04010KT 19/13 A3022 RMK A01 T01870128  RH  069%=      5-min Rain = 0
KCL1 140935Z 04010KT 19/13 A3022 RMK A01 T01870128  RH  069%=      5-min Rain = 0
KCL1 140936Z 03009KT 19/13 A3022 RMK A01 T01860128  RH  069%=      5-min Rain = 0
KCL1 140937Z 04010KT 19/13 A3022 RMK A01 T01860128  RH  069%=      5-min Rain = 0
KCL1 140938Z 04011KT 19/13 A3022 RMK A01 T01860128  RH  069%=      5-min Rain = 0
KCL1 140939Z 03010KT 19/13 A3022 RMK A01 T01860128  RH  069%=      5-min Rain = 0
KCL1 140940Z 04009KT 19/13 A3022 RMK A01 T01860128  RH  069%=      5-min Rain = 0
KCL1 140941Z 03010KT 19/13 A3022 RMK A01 T01860128  RH  069%=      5-min Rain = 0
KCL1 140942Z 04010KT 19/13 A3022 RMK A01 T01860128  RH  069%=      5-min Rain = 0
KCL1 140943Z 04010KT 19/13 A3022 RMK A01 T01860128  RH  069%=      5-min Rain = 0
KCL1 140944Z 04010KT 19/13 A3022 RMK A01 T01850128  RH  069%=      5-min Rain = 0
KCL1 140945Z 04009KT 19/13 A3022 RMK A01 T01850128  RH  069%=      5-min Rain = 0
KCL1 140946Z 04010KT 19/13 A3022 RMK A01 T01850128  RH  069%=      5-min Rain = 0
KCL1 140947Z 04010KT 19/13 A3022 RMK A01 T01850128  RH  069%=      5-min Rain = 0
KCL1 140948Z 03009KT 19/13 A3022 RMK A01 T01850128  RH  070%=      5-min Rain = 0
KCL1 140949Z 04011KT 18/13 A3022 RMK A01 T01840128  RH  070%=      5-min Rain = 0
KCL1 140950Z 04010KT 18/13 A3022 RMK A01 T01840129  RH  070%=      5-min Rain = 0
KCL1 140951Z 03010KT 18/13 A3022 RMK A01 T01840129  RH  070%=      5-min Rain = 0
KCL1 140952Z 03009KT 18/13 A3022 RMK A01 T01830129  RH  070%=      5-min Rain = 0
KCL1 140953Z 03009KT 18/13 A3022 RMK A01 T01830129  RH  071%=      5-min Rain = 0
KCL1 140954Z 03010KT 18/13 A3022 RMK A01 T01820129  RH  071%=      5-min Rain = 0
KCL1 140955Z 03010KT 18/13 A3022 RMK A01 T01820129  RH  071%=      5-min Rain = 0
KCL1 140956Z 03010KT 18/13 A3022 RMK A01 T01820128  RH  071%=      5-min Rain = 0
KCL1 140957Z 03009KT 18/13 A3022 RMK A01 T01830129  RH  071%=      5-min Rain = 0
KCL1 140958Z 02010KT 18/13 A3022 RMK A01 T01820129  RH  071%=      5-min Rain = 0
KCL1 140959Z 03009KT 18/13 A3023 RMK A01 T01820129  RH  071%=      5-min Rain = 0
KCL1 141000Z 03010KT 18/13 A3022 RMK A01 T01830129  RH  071%=      5-min Rain = 0
KCL1 141001Z 03009KT 18/13 A3022 RMK A01 T01820129  RH  071%=      5-min Rain = 0
KCL1 141002Z 03009KT 18/13 A3022 RMK A01 T01820129  RH  071%=      5-min Rain = 0
KCL1 141003Z 03009KT 18/13 A3022 RMK A01 T01820129  RH  071%=      5-min Rain = 0
KCL1 141004Z 03008KT 18/13 A3022 RMK A01 T01820129  RH  071%=      5-min Rain = 0
KCL1 141005Z 03009KT 18/13 A3023 RMK A01 T01820129  RH  071%=      5-min Rain = 0
KCL1 141006Z 03008KT 18/13 A3023 RMK A01 T01810129  RH  071%=      5-min Rain = 0
KCL1 141007Z 03008KT 18/13 A3023 RMK A01 T01810129  RH  071%=      5-min Rain = 0
KCL1 141008Z 03008KT 18/13 A3023 RMK A01 T01810129  RH  072%=      5-min Rain = 0
KCL1 141009Z 02008KT 18/13 A3023 RMK A01 T01810129  RH  072%=      5-min Rain = 0
KCL1 141010Z 02007KT 18/13 A3023 RMK A01 T01800129  RH  072%=      5-min Rain = 0
KCL1 141011Z 02007KT 18/13 A3024 RMK A01 T01800129  RH  072%=      5-min Rain = 0
KCL1 141012Z 02007KT 18/13 A3024 RMK A01 T01800130  RH  072%=      5-min Rain = 0
KCL1 141013Z 02008KT 18/13 A3024 RMK A01 T01800129  RH  072%=      5-min Rain = 0
KCL1 141014Z 02008KT 18/13 A3024 RMK A01 T01800130  RH  072%=      5-min Rain = 0
KCL1 141015Z 01008KT 18/13 A3024 RMK A01 T01790130  RH  073%=      5-min Rain = 0
KCL1 141016Z 01008KT 18/13 A3024 RMK A01 T01790129  RH  073%=      5-min Rain = 0
KCL1 141017Z 01008KT 18/13 A3024 RMK A01 T01790130  RH  073%=      5-min Rain = 0
KCL1 141018Z 01008KT 18/13 A3024 RMK A01 T01780129  RH  073%=      5-min Rain = 0
KCL1 141019Z 00008KT 18/13 A3024 RMK A01 T01780130  RH  073%=      5-min Rain = 0
KCL1 141020Z 00007KT 18/13 A3024 RMK A01 T01770130  RH  074%=      5-min Rain = 0
KCL1 141021Z 00008KT 18/13 A3025 RMK A01 T01770130  RH  074%=      5-min Rain = 0
KCL1 141022Z 00008KT 18/13 A3025 RMK A01 T01760130  RH  074%=      5-min Rain = 0
KCL1 141023Z 00009KT 18/13 A3025 RMK A01 T01760130  RH  074%=      5-min Rain = 0
KCL1 141024Z 00008KT 18/13 A3025 RMK A01 T01760130  RH  074%=      5-min Rain = 0
KCL1 141025Z 36008KT 18/13 A3025 RMK A01 T01760130  RH  075%=      5-min Rain = 0
KCL1 141026Z 00007KT 18/13 A3025 RMK A01 T01750130  RH  075%=      5-min Rain = 0
KCL1 141027Z 01007KT 18/13 A3024 RMK A01 T01750130  RH  075%=      5-min Rain = 0
KCL1 141028Z 01007KT 17/13 A3024 RMK A01 T01740130  RH  075%=      5-min Rain = 0
KCL1 141029Z 01008KT 17/13 A3024 RMK A01 T01740130  RH  076%=      5-min Rain = 0
KCL1 141030Z 01007KT 17/13 A3024 RMK A01 T01730130  RH  076%=      5-min Rain = 0
KCL1 141031Z 01007KT 17/13 A3025 RMK A01 T01730131  RH  076%=      5-min Rain = 0
KCL1 141032Z 01007KT 17/13 A3025 RMK A01 T01720131  RH  077%=      5-min Rain = 0
KCL1 141033Z 01007KT 17/13 A3025 RMK A01 T01720131  RH  077%=      5-min Rain = 0
KCL1 141034Z 01008KT 17/13 A3025 RMK A01 T01710131  RH  077%=      5-min Rain = 0
KCL1 141035Z 00009KT 17/13 A3025 RMK A01 T01700131  RH  078%=      5-min Rain = 0
KCL1 141036Z 00010KT 17/13 A3025 RMK A01 T01700131  RH  078%=      5-min Rain = 0
KCL1 141037Z 00011KT 17/13 A3025 RMK A01 T01700132  RH  078%=      5-min Rain = 0
KCL1 141038Z 00011KT 17/13 A3025 RMK A01 T01700132  RH  079%=      5-min Rain = 0
KCL1 141039Z 00009KT 17/13 A3025 RMK A01 T01700133  RH  079%=      5-min Rain = 0
KCL1 141040Z 01009KT 17/13 A3025 RMK A01 T01690133  RH  079%=      5-min Rain = 0
KCL1 141041Z 01009KT 17/13 A3025 RMK A01 T01690133  RH  079%=      5-min Rain = 0
KCL1 141042Z 01010KT 17/13 A3025 RMK A01 T01690133  RH  079%=      5-min Rain = 0
KCL1 141043Z 01009KT 17/13 A3024 RMK A01 T01690134  RH  080%=      5-min Rain = 0
KCL1 141044Z 01009KT 17/13 A3024 RMK A01 T01690134  RH  080%=      5-min Rain = 0
KCL1 141045Z 01009KT 17/13 A3024 RMK A01 T01690134  RH  080%=      5-min Rain = 0
KCL1 141046Z 01009KT 17/13 A3024 RMK A01 T01700134  RH  080%=      5-min Rain = 0
KCL1 141047Z 01008KT 17/13 A3024 RMK A01 T01700134  RH  080%=      5-min Rain = 0
KCL1 141048Z 00008KT 17/13 A3024 RMK A01 T01700134  RH  080%=      5-min Rain = 0
KCL1 141049Z 35011KT 17/14 A3025 RMK A01 T01700135  RH  080%=      5-min Rain = 0
KCL1 141050Z 35012KT 17/14 A3025 RMK A01 T01700135  RH  080%=      5-min Rain = 0
KCL1 141051Z 35011KT 17/14 A3025 RMK A01 T01700135  RH  080%=      5-min Rain = 0
KCL1 141052Z 35011KT 17/14 A3025 RMK A01 T01700135  RH  080%=      5-min Rain = 0
KCL1 141053Z 35008KT 17/14 A3025 RMK A01 T01700136  RH  080%=      5-min Rain = 0
KCL1 141054Z 35009KT 17/14 A3025 RMK A01 T01690136  RH  081%=      5-min Rain = 0
KCL1 141055Z 35013KT 17/14 A3025 RMK A01 T01690136  RH  081%=      5-min Rain = 0
KCL1 141056Z 35012KT 17/14 A3025 RMK A01 T01690136  RH  080%=      5-min Rain = 0
KCL1 141057Z 01010KT 17/14 A3025 RMK A01 T01700136  RH  080%=      5-min Rain = 0
KCL1 141058Z 01009KT 17/14 A3025 RMK A01 T01700135  RH  080%=      5-min Rain = 0
KCL1 141059Z 35012G17KT 17/14 A3025 RMK A01 T01700135  RH  080%=      5-min Rain = 0
KCL1 141100Z 35012KT 17/14 A3026 RMK A01 T01700136  RH  080%=      5-min Rain = 0
KCL1 141101Z 35013KT 17/14 A3026 RMK A01 T01700136  RH  080%=      5-min Rain = 0
KCL1 141102Z 35013KT 17/14 A3026 RMK A01 T01710136  RH  080%=      5-min Rain = 0
KCL1 141103Z 36009G14KT 17/14 A3025 RMK A01 T01700135  RH  080%=      5-min Rain = 0
KCL1 141104Z 36006KT 17/14 A3024 RMK A01 T01710135  RH  080%=      5-min Rain = 0
KCL1 141105Z 36006KT 17/14 A3024 RMK A01 T01710136  RH  080%=      5-min Rain = 0
KCL1 141106Z 36008KT 17/14 A3025 RMK A01 T01710135  RH  080%=      5-min Rain = 0
KCL1 141107Z 35010KT 17/14 A3025 RMK A01 T01710135  RH  079%=      5-min Rain = 0
KCL1 141108Z 34014KT 17/14 A3026 RMK A01 T01710135  RH  079%=      5-min Rain = 0
KCL1 141109Z 34011KT 17/14 A3026 RMK A01 T01720135  RH  079%=      5-min Rain = 0
KCL1 141110Z 34010KT 17/14 A3026 RMK A01 T01720136  RH  079%=      5-min Rain = 0
KCL1 141111Z 35004KT 17/14 A3025 RMK A01 T01720135  RH  079%=      5-min Rain = 0
KCL1 141112Z 01003KT 17/14 A3025 RMK A01 T01720135  RH  079%=      5-min Rain = 0
KCL1 141113Z 00006KT 17/14 A3025 RMK A01 T01720135  RH  079%=      5-min Rain = 0
KCL1 141114Z 35009KT 17/14 A3026 RMK A01 T01720135  RH  079%=      5-min Rain = 0
KCL1 141115Z 34011KT 17/14 A3026 RMK A01 T01730135  RH  079%=      5-min Rain = 0
KCL1 141116Z 34010KT 17/13 A3026 RMK A01 T01720134  RH  078%=      5-min Rain = 0
KCL1 141117Z 35008KT 17/14 A3026 RMK A01 T01730135  RH  078%=      5-min Rain = 0
KCL1 141118Z 35008KT 17/13 A3026 RMK A01 T01730134  RH  078%=      5-min Rain = 0
KCL1 141119Z 36006KT 17/14 A3025 RMK A01 T01730135  RH  078%=      5-min Rain = 0
KCL1 141120Z 35008KT 17/13 A3025 RMK A01 T01730134  RH  078%=      5-min Rain = 0
KCL1 141121Z 35008KT 17/14 A3025 RMK A01 T01730135  RH  078%=      5-min Rain = 0
KCL1 141122Z 35012KT 17/14 A3025 RMK A01 T01730135  RH  078%=      5-min Rain = 0
KCL1 141123Z 35010KT 17/14 A3025 RMK A01 T01730135  RH  078%=      5-min Rain = 0
KCL1 141124Z 00010KT 17/14 A3025 RMK A01 T01730135  RH  078%=      5-min Rain = 0
KCL1 141125Z 00008KT 17/13 A3024 RMK A01 T01720134  RH  078%=      5-min Rain = 0
KCL1 141126Z 00009KT 17/13 A3024 RMK A01 T01720134  RH  078%=      5-min Rain = 0
KCL1 141127Z 36010KT 17/13 A3025 RMK A01 T01730134  RH  078%=      5-min Rain = 0
KCL1 141128Z 35011KT 17/13 A3025 RMK A01 T01720134  RH  078%=      5-min Rain = 0
KCL1 141129Z 35010KT 17/13 A3025 RMK A01 T01730134  RH  078%=      5-min Rain = 0
KCL1 141130Z 36009KT 17/13 A3025 RMK A01 T01720134  RH  078%=      5-min Rain = 0
KCL1 141131Z 36007KT 17/13 A3025 RMK A01 T01720134  RH  078%=      5-min Rain = 0
KCL1 141132Z 00008KT 17/13 A3025 RMK A01 T01720133  RH  078%=      5-min Rain = 0
KCL1 141133Z 00009KT 17/13 A3025 RMK A01 T01720134  RH  078%=      5-min Rain = 0
KCL1 141134Z 36007KT 17/13 A3025 RMK A01 T01720134  RH  078%=      5-min Rain = 0
KCL1 141135Z 00007KT 17/13 A3025 RMK A01 T01720134  RH  078%=      5-min Rain = 0
KCL1 141136Z 00007KT 17/13 A3025 RMK A01 T01720134  RH  078%=      5-min Rain = 0
KCL1 141137Z 01006KT 17/13 A3025 RMK A01 T01720134  RH  078%=      5-min Rain = 0
KCL1 141138Z 02006KT 17/13 A3025 RMK A01 T01720134  RH  078%=      5-min Rain = 0
KCL1 141139Z 02005KT 17/13 A3025 RMK A01 T01720134  RH  078%=      5-min Rain = 0
KCL1 141140Z 03005KT 17/13 A3025 RMK A01 T01720134  RH  078%=      5-min Rain = 0
KCL1 141141Z 02005KT 17/13 A3025 RMK A01 T01710134  RH  078%=      5-min Rain = 0
KCL1 141142Z 01006KT 17/13 A3025 RMK A01 T01710134  RH  078%=      5-min Rain = 0
KCL1 141143Z 00007KT 17/13 A3025 RMK A01 T01710134  RH  079%=      5-min Rain = 0
KCL1 141144Z 00008KT 17/13 A3025 RMK A01 T01710134  RH  079%=      5-min Rain = 0
KCL1 141145Z 00008KT 17/13 A3025 RMK A01 T01700134  RH  079%=      5-min Rain = 0
KCL1 141146Z 01007KT 17/13 A3025 RMK A01 T01700134  RH  079%=      5-min Rain = 0
KCL1 141147Z 00008KT 17/13 A3025 RMK A01 T01710134  RH  079%=      5-min Rain = 0
KCL1 141148Z 00008KT 17/13 A3025 RMK A01 T01710134  RH  079%=      5-min Rain = 0
KCL1 141149Z 00008KT 17/13 A3025 RMK A01 T01710134  RH  079%=      5-min Rain = 0
KCL1 141150Z 35008KT 17/13 A3025 RMK A01 T01710134  RH  079%=      5-min Rain = 0
KCL1 141151Z 35009KT 17/13 A3025 RMK A01 T01710134  RH  079%=      5-min Rain = 0
KCL1 141152Z 35009KT 17/13 A3025 RMK A01 T01710134  RH  079%=      5-min Rain = 0
KCL1 141153Z 35008KT 17/13 A3025 RMK A01 T01710134  RH  079%=      5-min Rain = 0
KCL1 141154Z 35008KT 17/13 A3025 RMK A01 T01710134  RH  079%=      5-min Rain = 0
KCL1 141155Z 35009KT 17/13 A3025 RMK A01 T01720134  RH  078%=      5-min Rain = 0
KCL1 141156Z 35009KT 17/13 A3025 RMK A01 T01710134  RH  078%=      5-min Rain = 0
KCL1 141157Z 36009KT 17/13 A3025 RMK A01 T01720133  RH  078%=      5-min Rain = 0
KCL1 141158Z 36009KT 17/13 A3025 RMK A01 T01730133  RH  077%=      5-min Rain = 0
KCL1 141159Z 36008KT 17/13 A3025 RMK A01 T01740133  RH  077%=      5-min Rain = 0
KCL1 141200Z 00008KT 18/13 A3025 RMK A01 T01750133  RH  076%=      5-min Rain = 0
KCL1 141201Z 00007KT 18/13 A3025 RMK A01 T01760133  RH  076%=      5-min Rain = 0
KCL1 141202Z 01006KT 18/13 A3025 RMK A01 T01750133  RH  076%=      5-min Rain = 0
KCL1 141203Z 01006KT 18/13 A3025 RMK A01 T01760133  RH  076%=      5-min Rain = 0
KCL1 141204Z 00006KT 18/13 A3025 RMK A01 T01760134  RH  077%=      5-min Rain = 0
KCL1 141205Z 01006KT 18/13 A3025 RMK A01 T01750134  RH  077%=      5-min Rain = 0
KCL1 141206Z 02006KT 18/14 A3025 RMK A01 T01750135  RH  077%=      5-min Rain = 0
KCL1 141207Z 02006KT 17/13 A3025 RMK A01 T01740134  RH  077%=      5-min Rain = 0
KCL1 141208Z 03006KT 17/14 A3025 RMK A01 T01740135  RH  078%=      5-min Rain = 0
KCL1 141209Z 04006KT 17/14 A3025 RMK A01 T01730135  RH  078%=      5-min Rain = 0
KCL1 141210Z 04006KT 17/14 A3025 RMK A01 T01730135  RH  078%=      5-min Rain = 0
KCL1 141211Z 04005KT 17/14 A3025 RMK A01 T01730136  RH  079%=      5-min Rain = 0
KCL1 141212Z 03006KT 17/14 A3025 RMK A01 T01730137  RH  079%=      5-min Rain = 0
KCL1 141213Z 02006KT 17/14 A3025 RMK A01 T01720136  RH  079%=      5-min Rain = 0
KCL1 141214Z 03005KT 17/14 A3025 RMK A01 T01720136  RH  079%=      5-min Rain = 0
KCL1 141215Z 03006KT 17/14 A3025 RMK A01 T01720136  RH  080%=      5-min Rain = 0
KCL1 141216Z 03005KT 17/14 A3024 RMK A01 T01720137  RH  080%=      5-min Rain = 0
KCL1 141217Z 04005KT 17/14 A3024 RMK A01 T01720137  RH  080%=      5-min Rain = 0
KCL1 141218Z 04005KT 17/14 A3024 RMK A01 T01720137  RH  080%=      5-min Rain = 0
KCL1 141219Z 05005KT 17/14 A3024 RMK A01 T01720138  RH  080%=      5-min Rain = 0
KCL1 141220Z 05005KT 17/14 A3024 RMK A01 T01720138  RH  080%=      5-min Rain = 0
KCL1 141221Z 05004KT 17/14 A3024 RMK A01 T01720138  RH  080%=      5-min Rain = 0
KCL1 141222Z 04004KT 17/14 A3024 RMK A01 T01720138  RH  080%=      5-min Rain = 0
KCL1 141223Z 04003KT 17/14 A3025 RMK A01 T01720138  RH  081%=      5-min Rain = 0
KCL1 141224Z 04004KT 17/14 A3025 RMK A01 T01720138  RH  080%=      5-min Rain = 0
KCL1 141225Z 04004KT 17/14 A3025 RMK A01 T01720138  RH  081%=      5-min Rain = 0
KCL1 141226Z 03004KT 17/14 A3025 RMK A01 T01720138  RH  081%=      5-min Rain = 0
KCL1 141227Z 01004KT 17/14 A3025 RMK A01 T01720138  RH  081%=      5-min Rain = 0
KCL1 141228Z 00005KT 17/14 A3025 RMK A01 T01720138  RH  081%=      5-min Rain = 0
KCL1 141229Z 00005KT 17/14 A3025 RMK A01 T01720139  RH  081%=      5-min Rain = 0
KCL1 141230Z 00006KT 17/14 A3025 RMK A01 T01730139  RH  080%=      5-min Rain = 0
KCL1 141231Z 00005KT 17/14 A3025 RMK A01 T01730139  RH  080%=      5-min Rain = 0
KCL1 141232Z 01005KT 17/14 A3025 RMK A01 T01730139  RH  080%=      5-min Rain = 0
KCL1 141233Z 00004KT 17/14 A3025 RMK A01 T01730139  RH  080%=      5-min Rain = 0
KCL1 141234Z 35005KT 17/14 A3026 RMK A01 T01730139  RH  080%=      5-min Rain = 0
KCL1 141235Z 34007KT 17/14 A3026 RMK A01 T01740140  RH  080%=      5-min Rain = 0
KCL1 141236Z 34005KT 17/14 A3026 RMK A01 T01730139  RH  080%=      5-min Rain = 0
KCL1 141237Z 33007KT 17/14 A3026 RMK A01 T01740138  RH  079%=      5-min Rain = 0
KCL1 141238Z 33007KT 18/14 A3026 RMK A01 T01750137  RH  078%=      5-min Rain = 0
KCL1 141239Z 34007KT 18/14 A3026 RMK A01 T01750137  RH  078%=      5-min Rain = 0
KCL1 141240Z 34007KT 18/14 A3026 RMK A01 T01760137  RH  077%=      5-min Rain = 0
KCL1 141241Z 34007KT 18/14 A3026 RMK A01 T01780136  RH  076%=      5-min Rain = 0
KCL1 141242Z 34007KT 18/14 A3026 RMK A01 T01800136  RH  076%=      5-min Rain = 0
KCL1 141243Z 34008KT 18/14 A3026 RMK A01 T01810136  RH  075%=      5-min Rain = 0
KCL1 141244Z 33008KT 18/14 A3026 RMK A01 T01820136  RH  074%=      5-min Rain = 0
KCL1 141245Z 32007KT 18/14 A3027 RMK A01 T01830135  RH  074%=      5-min Rain = 0
KCL1 141246Z 32008KT 18/13 A3027 RMK A01 T01840134  RH  073%=      5-min Rain = 0
KCL1 141247Z 32009KT 19/13 A3027 RMK A01 T01860133  RH  071%=      5-min Rain = 0
KCL1 141248Z 33009KT 19/13 A3027 RMK A01 T01890131  RH  069%=      5-min Rain = 0
KCL1 141249Z 33008KT 19/13 A3027 RMK A01 T01920131  RH  068%=      5-min Rain = 0
KCL1 141250Z 33008KT 19/13 A3027 RMK A01 T01940132  RH  067%=      5-min Rain = 0
KCL1 141251Z 34007KT 19/13 A3027 RMK A01 T01940131  RH  067%=      5-min Rain = 0
KCL1 141252Z 34007KT 20/13 A3027 RMK A01 T01950131  RH  066%=      5-min Rain = 0
KCL1 141253Z 34006KT 20/13 A3027 RMK A01 T01960131  RH  066%=      5-min Rain = 0
KCL1 141254Z 34007KT 20/13 A3026 RMK A01 T01970131  RH  066%=      5-min Rain = 0
KCL1 141255Z 34006KT 20/13 A3026 RMK A01 T01970130  RH  066%=      5-min Rain = 0
KCL1 141256Z 35006KT 20/13 A3026 RMK A01 T01970130  RH  065%=      5-min Rain = 0
KCL1 141257Z 35007KT 20/13 A3026 RMK A01 T01970130  RH  065%=      5-min Rain = 0
KCL1 141258Z 35008KT 20/13 A3026 RMK A01 T01970130  RH  065%=      5-min Rain = 0
KCL1 141259Z 35007KT 20/13 A3026 RMK A01 T01970131  RH  065%=      5-min Rain = 0
KCL1 141300Z 35007KT 20/13 A3026 RMK A01 T01970131  RH  065%=      5-min Rain = 0
KCL1 141301Z 35007KT 20/13 A3026 RMK A01 T01970132  RH  066%=      5-min Rain = 0
KCL1 141302Z 35008KT 20/13 A3026 RMK A01 T01970132  RH  066%=      5-min Rain = 0
KCL1 141303Z 35007KT 20/13 A3026 RMK A01 T01970132  RH  066%=      5-min Rain = 0
KCL1 141304Z 00007KT 20/13 A3026 RMK A01 T01960132  RH  066%=      5-min Rain = 0
KCL1 141305Z 35006KT 20/13 A3026 RMK A01 T01960133  RH  067%=      5-min Rain = 0
KCL1 141306Z 00005KT 20/13 A3025 RMK A01 T01950132  RH  067%=      5-min Rain = 0
KCL1 141307Z 35005KT 20/13 A3025 RMK A01 T01950133  RH  067%=      5-min Rain = 0
KCL1 141308Z 36007KT 20/13 A3025 RMK A01 T01950132  RH  067%=      5-min Rain = 0
KCL1 141309Z 02006KT 20/13 A3025 RMK A01 T01950130  RH  066%=      5-min Rain = 0
KCL1 141310Z 02007KT 20/13 A3025 RMK A01 T01960130  RH  065%=      5-min Rain = 0
KCL1 141311Z 03005KT 20/13 A3025 RMK A01 T01960129  RH  065%=      5-min Rain = 0
KCL1 141312Z 02005KT 20/13 A3025 RMK A01 T01970132  RH  066%=      5-min Rain = 0
KCL1 141313Z 02004KT 20/13 A3025 RMK A01 T01960131  RH  066%=      5-min Rain = 0
KCL1 141314Z 04004KT 20/13 A3025 RMK A01 T01970132  RH  066%=      5-min Rain = 0
KCL1 141315Z 04005KT 20/13 A3025 RMK A01 T01970131  RH  066%=      5-min Rain = 0
KCL1 141316Z 05005KT 20/13 A3025 RMK A01 T01960133  RH  067%=      5-min Rain = 0
KCL1 141317Z 05004KT 20/13 A3025 RMK A01 T01960134  RH  067%=      5-min Rain = 0
KCL1 141318Z 05005KT 20/13 A3025 RMK A01 T01950134  RH  068%=      5-min Rain = 0
KCL1 141319Z 05004KT 20/13 A3025 RMK A01 T01950134  RH  068%=      5-min Rain = 0
KCL1 141320Z 06004KT 20/13 A3025 RMK A01 T01950134  RH  068%=      5-min Rain = 0
KCL1 141321Z 05003KT 20/13 A3025 RMK A01 T01950134  RH  068%=      5-min Rain = 0
KCL1 141322Z 05003KT 20/14 A3025 RMK A01 T01950135  RH  068%=      5-min Rain = 0
KCL1 141323Z 02004KT 20/13 A3025 RMK A01 T01950134  RH  068%=      5-min Rain = 0
KCL1 141324Z 03003KT 20/13 A3025 RMK A01 T01950132  RH  067%=      5-min Rain = 0
KCL1 141325Z 02002KT 20/13 A3025 RMK A01 T01960130  RH  066%=      5-min Rain = 0
KCL1 141326Z 01003KT 20/13 A3025 RMK A01 T01970132  RH  066%=      5-min Rain = 0
KCL1 141327Z 01002KT 20/13 A3025 RMK A01 T01970132  RH  066%=      5-min Rain = 0
KCL1 141328Z 35003KT 20/13 A3025 RMK A01 T01970132  RH  066%=      5-min Rain = 0
KCL1 141329Z 33002KT 20/13 A3025 RMK A01 T01970134  RH  067%=      5-min Rain = 0
KCL1 141330Z 30003KT 20/14 A3025 RMK A01 T01970136  RH  067%=      5-min Rain = 0
KCL1 141331Z 27003KT 20/14 A3025 RMK A01 T01970136  RH  068%=      5-min Rain = 0
KCL1 141332Z 25004KT 20/14 A3025 RMK A01 T01960137  RH  069%=      5-min Rain = 0
KCL1 141333Z 24005KT 20/14 A3025 RMK A01 T01960137  RH  069%=      5-min Rain = 0
KCL1 141334Z 23005KT 20/14 A3025 RMK A01 T01960135  RH  068%=      5-min Rain = 0
KCL1 141335Z 23005KT 20/13 A3025 RMK A01 T01960134  RH  068%=      5-min Rain = 0
KCL1 141336Z 23003KT 20/13 A3026 RMK A01 T01960134  RH  067%=      5-min Rain = 0
KCL1 141337Z 22004KT 20/13 A3026 RMK A01 T01960133  RH  067%=      5-min Rain = 0
KCL1 141338Z 23005KT 20/13 A3026 RMK A01 T01960132  RH  067%=      5-min Rain = 0
KCL1 141339Z 20003KT 20/13 A3026 RMK A01 T01960132  RH  067%=      5-min Rain = 0
KCL1 141340Z 21005KT 20/13 A3026 RMK A01 T01960131  RH  066%=      5-min Rain = 0
KCL1 141341Z 20006KT 20/13 A3026 RMK A01 T01960132  RH  066%=      5-min Rain = 0
KCL1 141342Z 20006KT 20/13 A3026 RMK A01 T01960131  RH  066%=      5-min Rain = 0
KCL1 141343Z 23004KT 20/13 A3026 RMK A01 T01970131  RH  066%=      5-min Rain = 0
KCL1 141344Z 26003KT 20/13 A3026 RMK A01 T01970130  RH  066%=      5-min Rain = 0
KCL1 141345Z 28001KT 20/13 A3026 RMK A01 T01970130  RH  065%=      5-min Rain = 0
KCL1 141346Z 20002KT 20/13 A3026 RMK A01 T01970131  RH  066%=      5-min Rain = 0
KCL1 141347Z 20002KT 20/13 A3026 RMK A01 T01970132  RH  066%=      5-min Rain = 0
KCL1 141348Z 20002KT 20/13 A3026 RMK A01 T01980133  RH  066%=      5-min Rain = 0
KCL1 141349Z 23002KT 20/13 A3026 RMK A01 T01980132  RH  066%=      5-min Rain = 0
KCL1 141350Z 24002KT 20/13 A3026 RMK A01 T01980132  RH  066%=      5-min Rain = 0
KCL1 141351Z 23001KT 20/13 A3026 RMK A01 T01970133  RH  066%=      5-min Rain = 0
KCL1 141352Z 23001KT 20/13 A3026 RMK A01 T01980133  RH  066%=      5-min Rain = 0
KCL1 141353Z 20001KT 20/13 A3026 RMK A01 T01970132  RH  066%=      5-min Rain = 0
KCL1 141354Z 19002KT 20/14 A3026 RMK A01 T01980135  RH  067%=      5-min Rain = 0
KCL1 141355Z 21003KT 20/14 A3026 RMK A01 T01970135  RH  067%=      5-min Rain = 0
KCL1 141356Z 22004KT 20/13 A3025 RMK A01 T01980134  RH  067%=      5-min Rain = 0
KCL1 141357Z 22006KT 20/14 A3025 RMK A01 T01980135  RH  067%=      5-min Rain = 0
KCL1 141358Z 22006KT 20/14 A3025 RMK A01 T01970135  RH  067%=      5-min Rain = 0
KCL1 141359Z 21007KT 20/13 A3025 RMK A01 T01970134  RH  067%=      5-min Rain = 0
KCL1 141400Z 21007KT 20/13 A3025 RMK A01 T01970132  RH  066%=      5-min Rain = 0
KCL1 141401Z 20006KT 20/13 A3025 RMK A01 T01970133  RH  067%=      5-min Rain = 0
KCL1 141402Z 20006KT 20/13 A3025 RMK A01 T01970134  RH  067%=      5-min Rain = 0
KCL1 141403Z 19006KT 20/13 A3025 RMK A01 T01960133  RH  067%=      5-min Rain = 0
KCL1 141404Z 18004KT 20/13 A3025 RMK A01 T01970133  RH  067%=      5-min Rain = 0
KCL1 141405Z 15005KT 20/13 A3025 RMK A01 T01970134  RH  067%=      5-min Rain = 0
KCL1 141406Z 14005KT 20/14 A3024 RMK A01 T01970135  RH  067%=      5-min Rain = 0
KCL1 141407Z 13006KT 20/14 A3024 RMK A01 T01960136  RH  068%=      5-min Rain = 0
KCL1 141408Z 13006KT 20/14 A3024 RMK A01 T01960137  RH  069%=      5-min Rain = 0
KCL1 141409Z 13007KT 20/14 A3023 RMK A01 T01950137  RH  069%=      5-min Rain = 0
KCL1 141410Z 11007KT 20/14 A3023 RMK A01 T01950137  RH  069%=      5-min Rain = 0
KCL1 141411Z 11010KT 19/14 A3022 RMK A01 T01940137  RH  070%=      5-min Rain = 0
KCL1 141412Z 13012KT 19/14 A3022 RMK A01 T01940136  RH  069%=      5-min Rain = 0
KCL1 141413Z 12011KT 19/14 A3022 RMK A01 T01940136  RH  069%=      5-min Rain = 0
KCL1 141414Z 11008KT 19/14 A3022 RMK A01 T01940137  RH  069%=      5-min Rain = 0
KCL1 141415Z 12007G13KT 19/14 A3022 RMK A01 T01940136  RH  069%=      5-min Rain = 0
KCL1 141416Z 03005KT 20/13 A3023 RMK A01 T01950134  RH  068%=      5-min Rain = 0
KCL1 141417Z 31003KT 20/13 A3024 RMK A01 T01960134  RH  067%=      5-min Rain = 0
KCL1 141418Z 22005KT 20/13 A3024 RMK A01 T01970133  RH  067%=      5-min Rain = 0
KCL1 141419Z 22008KT 20/13 A3024 RMK A01 T01980134  RH  067%=      5-min Rain = 0
KCL1 141420Z 21008KT 20/13 A3024 RMK A01 T01990133  RH  066%=      5-min Rain = 0
KCL1 141421Z 20010KT 20/13 A3024 RMK A01 T01990132  RH  065%=      5-min Rain = 0
KCL1 141422Z 20007KT 20/13 A3024 RMK A01 T02000131  RH  065%=      5-min Rain = 0
KCL1 141423Z 19007KT 20/13 A3024 RMK A01 T02000131  RH  065%=      5-min Rain = 0
KCL1 141424Z 21007KT 20/13 A3024 RMK A01 T02000131  RH  064%=      5-min Rain = 0
KCL1 141425Z 21007KT 20/13 A3024 RMK A01 T02010132  RH  065%=      5-min Rain = 0
KCL1 141426Z 21007KT 20/13 A3024 RMK A01 T02010132  RH  064%=      5-min Rain = 0
KCL1 141427Z 23007KT 20/13 A3024 RMK A01 T02010132  RH  064%=      5-min Rain = 0
KCL1 141428Z 21008KT 20/13 A3024 RMK A01 T02010132  RH  064%=      5-min Rain = 0
KCL1 141429Z 23008KT 20/13 A3024 RMK A01 T02010132  RH  064%=      5-min Rain = 0
KCL1 141430Z 23004KT 20/13 A3024 RMK A01 T02010133  RH  065%=      5-min Rain = 0
KCL1 141431Z 20003KT 20/13 A3024 RMK A01 T02010133  RH  065%=      5-min Rain = 0
KCL1 141432Z 22003KT 20/13 A3024 RMK A01 T02010132  RH  064%=      5-min Rain = 0
KCL1 141433Z 21003KT 20/13 A3024 RMK A01 T02010133  RH  065%=      5-min Rain = 0
KCL1 141434Z 21004KT 20/13 A3024 RMK A01 T02020134  RH  065%=      5-min Rain = 0
KCL1 141435Z 21006KT 20/13 A3024 RMK A01 T02020134  RH  065%=      5-min Rain = 0
KCL1 141436Z 22007KT 20/13 A3025 RMK A01 T02020133  RH  065%=      5-min Rain = 0
KCL1 141437Z 22007KT 20/13 A3025 RMK A01 T02030134  RH  064%=      5-min Rain = 0
KCL1 141438Z 23007KT 20/13 A3025 RMK A01 T02030132  RH  064%=      5-min Rain = 0
KCL1 141439Z 23005KT 20/13 A3024 RMK A01 T02030133  RH  064%=      5-min Rain = 0
KCL1 141440Z 22006KT 20/13 A3024 RMK A01 T02020134  RH  064%=      5-min Rain = 0
KCL1 141441Z 21006KT 20/13 A3024 RMK A01 T02030134  RH  064%=      5-min Rain = 0
KCL1 141442Z 22006KT 20/13 A3024 RMK A01 T02030134  RH  065%=      5-min Rain = 0
KCL1 141443Z 21006KT 20/14 A3024 RMK A01 T02030135  RH  065%=      5-min Rain = 0
KCL1 141444Z 22006KT 20/13 A3024 RMK A01 T02040134  RH  064%=      5-min Rain = 0
KCL1 141445Z 21006KT 20/13 A3025 RMK A01 T02030134  RH  064%=      5-min Rain = 0
KCL1 141446Z 21004KT 20/13 A3025 RMK A01 T02040134  RH  064%=      5-min Rain = 0
KCL1 141447Z 21005KT 20/14 A3024 RMK A01 T02040135  RH  064%=      5-min Rain = 0
KCL1 141448Z 22004KT 20/13 A3024 RMK A01 T02040134  RH  064%=      5-min Rain = 0
KCL1 141449Z 20003KT 21/14 A3024 RMK A01 T02050135  RH  064%=      5-min Rain = 0
KCL1 141450Z 17004KT 21/13 A3024 RMK A01 T02050133  RH  063%=      5-min Rain = 0
KCL1 141451Z 14004KT 21/13 A3025 RMK A01 T02060134  RH  063%=      5-min Rain = 0
KCL1 141452Z 11006KT 21/14 A3025 RMK A01 T02060137  RH  064%=      5-min Rain = 0
KCL1 141453Z 10008KT 21/14 A3025 RMK A01 T02070138  RH  065%=      5-min Rain = 0
KCL1 141454Z 10007KT 21/14 A3025 RMK A01 T02070139  RH  065%=      5-min Rain = 0
KCL1 141455Z 11006KT 21/14 A3026 RMK A01 T02060139  RH  065%=      5-min Rain = 0
KCL1 141456Z 10007KT 21/14 A3026 RMK A01 T02060138  RH  065%=      5-min Rain = 0
KCL1 141457Z 11007KT 21/14 A3026 RMK A01 T02060138  RH  065%=      5-min Rain = 0
KCL1 141458Z 10008KT 21/14 A3026 RMK A01 T02060136  RH  064%=      5-min Rain = 0
KCL1 141459Z 10008KT 21/14 A3026 RMK A01 T02060135  RH  064%=      5-min Rain = 0
KCL1 141500Z 11005KT 21/14 A3026 RMK A01 T02060136  RH  064%=      5-min Rain = 0
KCL1 141501Z 11005KT 21/14 A3026 RMK A01 T02070137  RH  064%=      5-min Rain = 0
KCL1 141502Z 11005KT 21/14 A3026 RMK A01 T02070136  RH  064%=      5-min Rain = 0
KCL1 141503Z 11005KT 21/14 A3026 RMK A01 T02070136  RH  064%=      5-min Rain = 0
KCL1 141504Z 11004KT 21/14 A3026 RMK A01 T02080137  RH  064%=      5-min Rain = 0
KCL1 141505Z 12005KT 21/14 A3026 RMK A01 T02090139  RH  064%=      5-min Rain = 0
KCL1 141506Z 12004KT 21/14 A3026 RMK A01 T02090139  RH  064%=      5-min Rain = 0
KCL1 141507Z 13005KT 21/14 A3026 RMK A01 T02100138  RH  063%=      5-min Rain = 0
KCL1 141508Z 13005KT 21/14 A3026 RMK A01 T02110138  RH  063%=      5-min Rain = 0
KCL1 141509Z 14004KT 21/14 A3026 RMK A01 T02110138  RH  063%=      5-min Rain = 0
KCL1 141510Z 15005KT 21/14 A3026 RMK A01 T02120138  RH  063%=      5-min Rain = 0
KCL1 141511Z 14004KT 21/14 A3026 RMK A01 T02120138  RH  062%=      5-min Rain = 0
KCL1 141512Z 15003KT 21/14 A3026 RMK A01 T02130136  RH  062%=      5-min Rain = 0
KCL1 141513Z 16004KT 21/14 A3026 RMK A01 T02140137  RH  062%=      5-min Rain = 0
KCL1 141514Z 16003KT 21/14 A3026 RMK A01 T02140136  RH  061%=      5-min Rain = 0
KCL1 141515Z 15003KT 21/14 A3026 RMK A01 T02140137  RH  061%=      5-min Rain = 0
KCL1 141516Z 15003KT 22/14 A3026 RMK A01 T02150137  RH  061%=      5-min Rain = 0
KCL1 141517Z 15004KT 22/14 A3026 RMK A01 T02160135  RH  060%=      5-min Rain = 0
KCL1 141518Z 14004KT 22/14 A3026 RMK A01 T02170136  RH  060%=      5-min Rain = 0
KCL1 141519Z 14004KT 22/14 A3026 RMK A01 T02170136  RH  060%=      5-min Rain = 0
KCL1 141520Z 15004KT 22/14 A3026 RMK A01 T02180135  RH  059%=      5-min Rain = 0
KCL1 141521Z 18004KT 22/14 A3026 RMK A01 T02190136  RH  059%=      5-min Rain = 0
KCL1 141522Z 19006KT 22/13 A3026 RMK A01 T02190134  RH  058%=      5-min Rain = 0
KCL1 141523Z 19005KT 22/13 A3025 RMK A01 T02200132  RH  058%=      5-min Rain = 0
KCL1 141524Z 21004KT 22/13 A3025 RMK A01 T02200133  RH  058%=      5-min Rain = 0
KCL1 141525Z 21003KT 22/14 A3025 RMK A01 T02210136  RH  058%=      5-min Rain = 0
KCL1 141526Z 21003KT 22/14 A3025 RMK A01 T02220136  RH  058%=      5-min Rain = 0
KCL1 141527Z 22003KT 22/13 A3025 RMK A01 T02220133  RH  057%=      5-min Rain = 0
KCL1 141528Z 25001KT 22/13 A3025 RMK A01 T02220133  RH  057%=      5-min Rain = 0
KCL1 141529Z 28002KT 22/14 A3025 RMK A01 T02230135  RH  057%=      5-min Rain = 0
KCL1 141530Z 26002KT 22/13 A3025 RMK A01 T02240130  RH  055%=      5-min Rain = 0
KCL1 141531Z 29001KT 22/13 A3025 RMK A01 T02240129  RH  055%=      5-min Rain = 0
KCL1 141532Z 31002KT 22/13 A3025 RMK A01 T02240129  RH  055%=      5-min Rain = 0
KCL1 141533Z 31001KT 22/13 A3025 RMK A01 T02240131  RH  056%=      5-min Rain = 0
KCL1 141534Z 29002KT 23/14 A3024 RMK A01 T02260136  RH  057%=      5-min Rain = 0
KCL1 141535Z 27002KT 23/13 A3024 RMK A01 T02290131  RH  054%=      5-min Rain = 0
KCL1 141536Z 30002KT 23/13 A3024 RMK A01 T02300129  RH  053%=      5-min Rain = 0
KCL1 141537Z 30002KT 23/13 A3024 RMK A01 T02320132  RH  053%=      5-min Rain = 0
KCL1 141538Z 32003KT 23/14 A3024 RMK A01 T02330137  RH  055%=      5-min Rain = 0
KCL1 141539Z 34003KT 24/14 A3024 RMK A01 T02370136  RH  053%=      5-min Rain = 0
KCL1 141540Z 33003KT 24/13 A3025 RMK A01 T02390134  RH  052%=      5-min Rain = 0
KCL1 141541Z 33004KT 24/14 A3025 RMK A01 T02390137  RH  053%=      5-min Rain = 0
KCL1 141542Z 34005KT 24/13 A3025 RMK A01 T02400134  RH  051%=      5-min Rain = 0
KCL1 141543Z 35004KT 24/13 A3026 RMK A01 T02400133  RH  051%=      5-min Rain = 0
KCL1 141544Z 36005KT 24/13 A3026 RMK A01 T02410132  RH  051%=      5-min Rain = 0
KCL1 141545Z 34004KT 24/13 A3026 RMK A01 T02410130  RH  050%=      5-min Rain = 0
KCL1 141546Z 34004KT 24/13 A3026 RMK A01 T02420134  RH  051%=      5-min Rain = 0
KCL1 141547Z 33006KT 24/13 A3027 RMK A01 T02440134  RH  050%=      5-min Rain = 0
KCL1 141548Z 33008KT 24/13 A3027 RMK A01 T02440133  RH  050%=      5-min Rain = 0
KCL1 141549Z 34009KT 24/13 A3028 RMK A01 T02430132  RH  050%=      5-min Rain = 0
KCL1 141550Z 34011KT 24/13 A3028 RMK A01 T02420132  RH  050%=      5-min Rain = 0
KCL1 141551Z 34009KT 24/13 A3028 RMK A01 T02420131  RH  050%=      5-min Rain = 0
KCL1 141552Z 34004KT 24/13 A3028 RMK A01 T02410132  RH  051%=      5-min Rain = 0
KCL1 141553Z 32004KT 24/13 A3027 RMK A01 T02410132  RH  051%=      5-min Rain = 0
KCL1 141554Z 32003KT 24/13 A3027 RMK A01 T02400131  RH  050%=      5-min Rain = 0
KCL1 141555Z 33007KT 24/13 A3028 RMK A01 T02390132  RH  051%=      5-min Rain = 0
KCL1 141556Z 34009KT 24/13 A3028 RMK A01 T02380132  RH  051%=      5-min Rain = 0
KCL1 141557Z 34007KT 24/13 A3028 RMK A01 T02380132  RH  052%=      5-min Rain = 0
KCL1 141558Z 33008KT 24/13 A3028 RMK A01 T02380133  RH  052%=      5-min Rain = 0
KCL1 141559Z 34009KT 24/13 A3028 RMK A01 T02390132  RH  051%=      5-min Rain = 0
KCL1 141600Z 35007KT 24/13 A3028 RMK A01 T02380133  RH  051%=      5-min Rain = 0
KCL1 141601Z 34007KT 24/13 A3028 RMK A01 T02390133  RH  051%=      5-min Rain = 0
KCL1 141602Z 36008KT 24/13 A3028 RMK A01 T02390133  RH  051%=      5-min Rain = 0
KCL1 141603Z 34006KT 24/14 A3027 RMK A01 T02390135  RH  052%=      5-min Rain = 0
KCL1 141604Z 34006KT 24/14 A3027 RMK A01 T02390135  RH  052%=      5-min Rain = 0
KCL1 141605Z 36007KT 24/14 A3027 RMK A01 T02380135  RH  052%=      5-min Rain = 0
KCL1 141606Z 35009KT 24/13 A3027 RMK A01 T02380134  RH  052%=      5-min Rain = 0
KCL1 141607Z 35008KT 24/14 A3028 RMK A01 T02370135  RH  053%=      5-min Rain = 0
KCL1 141608Z 35009KT 24/13 A3028 RMK A01 T02370133  RH  052%=      5-min Rain = 0
KCL1 141609Z 35009KT 24/13 A3028 RMK A01 T02370134  RH  052%=      5-min Rain = 0
KCL1 141610Z 34008KT 24/13 A3028 RMK A01 T02370134  RH  053%=      5-min Rain = 0
KCL1 141611Z 35005KT 24/13 A3028 RMK A01 T02360133  RH  052%=      5-min Rain = 0
KCL1 141612Z 34004KT 24/14 A3028 RMK A01 T02360135  RH  053%=      5-min Rain = 0
KCL1 141613Z 01005KT 24/13 A3028 RMK A01 T02370132  RH  052%=      5-min Rain = 0
KCL1 141614Z 35006KT 24/13 A3027 RMK A01 T02380134  RH  052%=      5-min Rain = 0
KCL1 141615Z 33007KT 24/13 A3027 RMK A01 T02400132  RH  051%=      5-min Rain = 0
KCL1 141616Z 32006KT 24/13 A3027 RMK A01 T02400133  RH  051%=      5-min Rain = 0
KCL1 141617Z 32005KT 24/13 A3027 RMK A01 T02410131  RH  050%=      5-min Rain = 0
KCL1 141618Z 32008KT 24/13 A3027 RMK A01 T02410133  RH  051%=      5-min Rain = 0
KCL1 141619Z 34008KT 24/13 A3027 RMK A01 T02420130  RH  049%=      5-min Rain = 0
KCL1 141620Z 34008KT 24/13 A3027 RMK A01 T02430129  RH  049%=      5-min Rain = 0
KCL1 141621Z 35006KT 24/13 A3027 RMK A01 T02420131  RH  050%=      5-min Rain = 0
KCL1 141622Z 33006KT 24/13 A3027 RMK A01 T02420130  RH  049%=      5-min Rain = 0
KCL1 141623Z 33006KT 24/13 A3027 RMK A01 T02410131  RH  050%=      5-min Rain = 0
KCL1 141624Z 35010KT 24/13 A3027 RMK A01 T02420132  RH  050%=      5-min Rain = 0
KCL1 141625Z 35009KT 24/13 A3027 RMK A01 T02430131  RH  050%=      5-min Rain = 0
KCL1 141626Z 00007KT 24/13 A3028 RMK A01 T02430131  RH  050%=      5-min Rain = 0
KCL1 141627Z 00006KT 25/13 A3028 RMK A01 T02450134  RH  050%=      5-min Rain = 0
KCL1 141628Z 34007KT 25/13 A3028 RMK A01 T02470134  RH  050%=      5-min Rain = 0
KCL1 141629Z 35005KT 25/13 A3028 RMK A01 T02480133  RH  049%=      5-min Rain = 0
KCL1 141630Z 01005KT 25/13 A3028 RMK A01 T02470133  RH  049%=      5-min Rain = 0
KCL1 141631Z 34007KT 25/13 A3028 RMK A01 T02460133  RH  049%=      5-min Rain = 0
KCL1 141632Z 00006KT 25/13 A3028 RMK A01 T02460133  RH  049%=      5-min Rain = 0
KCL1 141633Z 03007KT 25/13 A3028 RMK A01 T02470132  RH  049%=      5-min Rain = 0
KCL1 141634Z 34009KT 25/13 A3028 RMK A01 T02480134  RH  049%=      5-min Rain = 0
KCL1 141635Z 33009KT 25/13 A3028 RMK A01 T02490133  RH  048%=      5-min Rain = 0
KCL1 141636Z 35008KT 25/13 A3028 RMK A01 T02490132  RH  048%=      5-min Rain = 0
KCL1 141637Z 00007KT 25/13 A3028 RMK A01 T02490130  RH  047%=      5-min Rain = 0
KCL1 141638Z 01008KT 25/13 A3027 RMK A01 T02490130  RH  047%=      5-min Rain = 0
KCL1 141639Z 02005KT 25/13 A3027 RMK A01 T02490130  RH  048%=      5-min Rain = 0
KCL1 141640Z 00009KT 25/13 A3028 RMK A01 T02490131  RH  048%=      5-min Rain = 0
KCL1 141641Z 00009KT 25/13 A3028 RMK A01 T02500131  RH  048%=      5-min Rain = 0
KCL1 141642Z 02007G12KT 25/13 A3027 RMK A01 T02510134  RH  048%=      5-min Rain = 0
KCL1 141643Z 04009KT 25/13 A3027 RMK A01 T02530132  RH  047%=      5-min Rain = 0
KCL1 141644Z 04006KT 25/13 A3027 RMK A01 T02530130  RH  046%=      5-min Rain = 0
KCL1 141645Z 02006G12KT 25/13 A3027 RMK A01 T02520131  RH  047%=      5-min Rain = 0
KCL1 141646Z 04012KT 25/13 A3027 RMK A01 T02530131  RH  047%=      5-min Rain = 0
KCL1 141647Z 05011KT 25/13 A3027 RMK A01 T02540128  RH  046%=      5-min Rain = 0
KCL1 141648Z 04007KT 25/13 A3027 RMK A01 T02540128  RH  045%=      5-min Rain = 0
KCL1 141649Z 03009KT 25/13 A3027 RMK A01 T02540131  RH  046%=      5-min Rain = 0
KCL1 141650Z 05010KT 26/13 A3027 RMK A01 T02550131  RH  046%=      5-min Rain = 0
KCL1 141651Z 04010KT 26/13 A3028 RMK A01 T02560132  RH  046%=      5-min Rain = 0
KCL1 141652Z 03008KT 26/13 A3027 RMK A01 T02570132  RH  046%=      5-min Rain = 0
KCL1 141653Z 05011KT 26/13 A3027 RMK A01 T02580134  RH  046%=      5-min Rain = 0
KCL1 141654Z 06010KT 26/13 A3027 RMK A01 T02590132  RH  045%=      5-min Rain = 0
KCL1 141655Z 06009KT 26/13 A3027 RMK A01 T02580132  RH  046%=      5-min Rain = 0
KCL1 141656Z 04011KT 26/14 A3027 RMK A01 T02560135  RH  047%=      5-min Rain = 0
KCL1 141657Z 03014KT 26/14 A3027 RMK A01 T02550136  RH  048%=      5-min Rain = 0
KCL1 141658Z 02012KT 25/14 A3027 RMK A01 T02530135  RH  048%=      5-min Rain = 0
KCL1 141659Z 02012KT 25/14 A3026 RMK A01 T02530135  RH  048%=      5-min Rain = 0
KCL1 141700Z 03012KT 25/13 A3026 RMK A01 T02530133  RH  047%=      5-min Rain = 0
KCL1 141701Z 03012KT 25/14 A3026 RMK A01 T02540135  RH  048%=      5-min Rain = 0
KCL1 141702Z 03011KT 26/13 A3026 RMK A01 T02560133  RH  046%=      5-min Rain = 0
KCL1 141703Z 04008KT 26/13 A3026 RMK A01 T02550130  RH  046%=      5-min Rain = 0
KCL1 141704Z 03008KT 25/13 A3026 RMK A01 T02530133  RH  047%=      5-min Rain = 0
KCL1 141705Z 05012KT 26/14 A3026 RMK A01 T02570135  RH  047%=      5-min Rain = 0
KCL1 141706Z 05012KT 26/13 A3026 RMK A01 T02590130  RH  045%=      5-min Rain = 0
KCL1 141707Z 06013KT 26/13 A3026 RMK A01 T02580130  RH  045%=      5-min Rain = 0
KCL1 141708Z 05009KT 26/13 A3026 RMK A01 T02580132  RH  046%=      5-min Rain = 0
KCL1 141709Z 04013KT 26/14 A3026 RMK A01 T02600135  RH  046%=      5-min Rain = 0
KCL1 141710Z 05012KT 26/14 A3026 RMK A01 T02610135  RH  046%=      5-min Rain = 0
KCL1 141711Z 05011KT 26/13 A3026 RMK A01 T02600130  RH  045%=      5-min Rain = 0
KCL1 141712Z 03011KT 26/13 A3026 RMK A01 T02560131  RH  046%=      5-min Rain = 0
KCL1 141713Z 02011KT 26/13 A3026 RMK A01 T02550132  RH  046%=      5-min Rain = 0
KCL1 141714Z 02010KT 26/13 A3026 RMK A01 T02550132  RH  046%=      5-min Rain = 0
KCL1 141715Z 00009KT 26/13 A3026 RMK A01 T02550134  RH  047%=      5-min Rain = 0
KCL1 141716Z 01009KT 26/13 A3026 RMK A01 T02560133  RH  046%=      5-min Rain = 0
KCL1 141717Z 01007KT 26/14 A3026 RMK A01 T02550135  RH  047%=      5-min Rain = 0
KCL1 141718Z 03006KT 26/14 A3026 RMK A01 T02560137  RH  048%=      5-min Rain = 0
KCL1 141719Z 05011KT 26/14 A3026 RMK A01 T02590138  RH  047%=      5-min Rain = 0
KCL1 141720Z 04010KT 26/14 A3026 RMK A01 T02630138  RH  046%=      5-min Rain = 0
KCL1 141721Z 04010KT 27/14 A3026 RMK A01 T02650137  RH  045%=      5-min Rain = 0
KCL1 141722Z 04006KT 26/13 A3026 RMK A01 T02620134  RH  045%=      5-min Rain = 0
KCL1 141723Z 02008G13KT 26/14 A3026 RMK A01 T02610136  RH  046%=      5-min Rain = 0
KCL1 141724Z 04012KT 26/13 A3026 RMK A01 T02610134  RH  045%=      5-min Rain = 0
KCL1 141725Z 05008KT 26/13 A3026 RMK A01 T02600134  RH  046%=      5-min Rain = 0
KCL1 141726Z 02006KT 26/14 A3026 RMK A01 T02630140  RH  046%=      5-min Rain = 0
KCL1 141727Z 01006KT 27/14 A3026 RMK A01 T02670140  RH  046%=      5-min Rain = 0
KCL1 141728Z 36007KT 27/14 A3026 RMK A01 T02670139  RH  045%=      5-min Rain = 0
KCL1 141729Z 34007KT 27/14 A3026 RMK A01 T02650140  RH  046%=      5-min Rain = 0
KCL1 141730Z 00008KT 26/14 A3026 RMK A01 T02640140  RH  046%=      5-min Rain = 0
KCL1 141731Z 02008KT 27/14 A3026 RMK A01 T02650139  RH  046%=      5-min Rain = 0
KCL1 141732Z 03007G12KT 26/14 A3026 RMK A01 T02640139  RH  046%=      5-min Rain = 0
KCL1 141733Z 03009KT 26/14 A3026 RMK A01 T02630141  RH  047%=      5-min Rain = 0
KCL1 141734Z 03009KT 26/14 A3026 RMK A01 T02640140  RH  047%=      5-min Rain = 0
KCL1 141735Z 05009KT 26/14 A3026 RMK A01 T02630139  RH  046%=      5-min Rain = 0
KCL1 141736Z 06009KT 26/14 A3026 RMK A01 T02620139  RH  047%=      5-min Rain = 0
KCL1 141737Z 06010KT 26/14 A3026 RMK A01 T02620140  RH  047%=      5-min Rain = 0
KCL1 141738Z 05009KT 26/14 A3026 RMK A01 T02630139  RH  046%=      5-min Rain = 0
KCL1 141739Z 02006KT 26/14 A3026 RMK A01 T02630142  RH  047%=      5-min Rain = 0
KCL1 141740Z 35010KT 26/14 A3026 RMK A01 T02640141  RH  047%=      5-min Rain = 0
KCL1 141741Z 36009KT 27/14 A3026 RMK A01 T02660140  RH  046%=      5-min Rain = 0
KCL1 141742Z 36007KT 27/14 A3026 RMK A01 T02660142  RH  046%=      5-min Rain = 0
KCL1 141743Z 34008KT 27/14 A3026 RMK A01 T02690142  RH  046%=      5-min Rain = 0
KCL1 141744Z 35007KT 27/14 A3025 RMK A01 T02690140  RH  045%=      5-min Rain = 0
KCL1 141745Z 00005KT 27/14 A3025 RMK A01 T02680142  RH  046%=      5-min Rain = 0
KCL1 141746Z 01004KT 27/14 A3025 RMK A01 T02680142  RH  046%=      5-min Rain = 0
KCL1 141747Z 01006KT 27/14 A3025 RMK A01 T02690142  RH  046%=      5-min Rain = 0
KCL1 141748Z 03008KT 27/14 A3025 RMK A01 T02700144  RH  046%=      5-min Rain = 0
KCL1 141749Z 02010KT 27/14 A3025 RMK A01 T02710138  RH  044%=      5-min Rain = 0
KCL1 141750Z 04008KT 27/14 A3025 RMK A01 T02700142  RH  045%=      5-min Rain = 0
KCL1 141751Z 04010KT 27/14 A3025 RMK A01 T02710141  RH  045%=      5-min Rain = 0
KCL1 141752Z 04007KT 27/14 A3025 RMK A01 T02690137  RH  044%=      5-min Rain = 0
KCL1 141753Z 01008KT 27/14 A3025 RMK A01 T02670136  RH  044%=      5-min Rain = 0
KCL1 141754Z 00010KT 27/14 A3025 RMK A01 T02660135  RH  044%=      5-min Rain = 0
KCL1 141755Z 01009KT 27/14 A3025 RMK A01 T02660136  RH  045%=      5-min Rain = 0
KCL1 141756Z 36008KT 27/14 A3025 RMK A01 T02650136  RH  045%=      5-min Rain = 0
KCL1 141757Z 01009KT 27/14 A3025 RMK A01 T02650137  RH  045%=      5-min Rain = 0
KCL1 141758Z 00006KT 27/14 A3024 RMK A01 T02650136  RH  045%=      5-min Rain = 0
KCL1 141759Z 01005KT 27/14 A3024 RMK A01 T02650137  RH  045%=      5-min Rain = 0
KCL1 141800Z 02005KT 27/14 A3024 RMK A01 T02660136  RH  045%=      5-min Rain = 0
KCL1 141801Z 01009KT 27/14 A3024 RMK A01 T02670135  RH  044%=      5-min Rain = 0
KCL1 141802Z 01012KT 27/13 A3024 RMK A01 T02680134  RH  044%=      5-min Rain = 0
KCL1 141803Z 01009KT 27/13 A3024 RMK A01 T02680134  RH  044%=      5-min Rain = 0
KCL1 141804Z 01006KT 27/14 A3024 RMK A01 T02680135  RH  044%=      5-min Rain = 0
KCL1 141805Z 01007KT 27/14 A3024 RMK A01 T02690137  RH  044%=      5-min Rain = 0
KCL1 141806Z 03008KT 27/14 A3023 RMK A01 T02710141  RH  045%=      5-min Rain = 0
KCL1 141807Z 03006KT 27/14 A3023 RMK A01 T02720138  RH  044%=      5-min Rain = 0
KCL1 141808Z 03008KT 27/14 A3023 RMK A01 T02720139  RH  044%=      5-min Rain = 0
KCL1 141809Z 04006KT 27/14 A3023 RMK A01 T02730137  RH  043%=      5-min Rain = 0
KCL1 141810Z 07006KT 27/14 A3023 RMK A01 T02730139  RH  044%=      5-min Rain = 0
KCL1 141811Z 08004KT 27/14 A3023 RMK A01 T02730137  RH  043%=      5-min Rain = 0
KCL1 141812Z 07004KT 27/14 A3023 RMK A01 T02720139  RH  044%=      5-min Rain = 0
KCL1 141813Z 06004KT 27/14 A3022 RMK A01 T02720138  RH  044%=      5-min Rain = 0
KCL1 141814Z 02005KT 27/14 A3022 RMK A01 T02740143  RH  045%=      5-min Rain = 0
KCL1 141815Z 02004KT 28/14 A3022 RMK A01 T02760138  RH  043%=      5-min Rain = 0
KCL1 141816Z 03001KT 28/14 A3022 RMK A01 T02750135  RH  042%=      5-min Rain = 0
KCL1 141817Z 05004KT 27/14 A3022 RMK A01 T02740136  RH  043%=      5-min Rain = 0
KCL1 141818Z 02006KT 27/14 A3022 RMK A01 T02740139  RH  043%=      5-min Rain = 0
KCL1 141819Z 02005KT 28/14 A3022 RMK A01 T02750141  RH  044%=      5-min Rain = 0
KCL1 141820Z 02005KT 28/14 A3021 RMK A01 T02770141  RH  043%=      5-min Rain = 0
KCL1 141821Z 01007KT 28/14 A3021 RMK A01 T02770140  RH  043%=      5-min Rain = 0
KCL1 141822Z 08009KT 28/14 A3021 RMK A01 T02770141  RH  043%=      5-min Rain = 0
KCL1 141823Z 07010KT 28/14 A3021 RMK A01 T02790141  RH  043%=      5-min Rain = 0
KCL1 141824Z 06007KT 28/14 A3021 RMK A01 T02800140  RH  042%=      5-min Rain = 0
KCL1 141825Z 08005KT 28/14 A3021 RMK A01 T02800139  RH  042%=      5-min Rain = 0
KCL1 141826Z 08006KT 28/14 A302 RMK A01 T02790139  RH  042%=      5-min Rain = 0
KCL1 141827Z 10008KT 28/14 A302 RMK A01 T02770137  RH  042%=      5-min Rain = 0
KCL1 141828Z 11010KT 28/14 A302 RMK A01 T02760137  RH  042%=      5-min Rain = 0
KCL1 141829Z 11008KT 28/14 A302 RMK A01 T02760140  RH  043%=      5-min Rain = 0
KCL1 141830Z 12009KT 28/14 A302 RMK A01 T02790139  RH  042%=      5-min Rain = 0
KCL1 141831Z 12008KT 28/14 A3019 RMK A01 T02800140  RH  042%=      5-min Rain = 0
KCL1 141832Z 10008KT 28/14 A3019 RMK A01 T02820140  RH  042%=      5-min Rain = 0
KCL1 141833Z 09007KT 28/14 A3019 RMK A01 T02840143  RH  042%=      5-min Rain = 0
KCL1 141834Z 10009KT 29/14 A3019 RMK A01 T02870142  RH  041%=      5-min Rain = 0
KCL1 141835Z 11009KT 29/14 A3019 RMK A01 T02860138  RH  040%=      5-min Rain = 0
KCL1 141836Z 10007KT 28/13 A3019 RMK A01 T02810134  RH  040%=      5-min Rain = 0
KCL1 141837Z 10005KT 28/13 A3019 RMK A01 T02750133  RH  041%=      5-min Rain = 0
KCL1 141838Z 09004KT 27/13 A3019 RMK A01 T02720133  RH  042%=      5-min Rain = 0
KCL1 141839Z 11009KT 27/14 A3019 RMK A01 T02740138  RH  043%=      5-min Rain = 0
KCL1 141840Z 11009KT 28/14 A3019 RMK A01 T02800136  RH  041%=      5-min Rain = 0
KCL1 141841Z 11009KT 28/13 A3019 RMK A01 T02830134  RH  040%=      5-min Rain = 0
KCL1 141842Z 09005KT 28/14 A3019 RMK A01 T02830136  RH  040%=      5-min Rain = 0
KCL1 141843Z 08005KT 28/13 A3019 RMK A01 T02810134  RH  040%=      5-min Rain = 0
KCL1 141844Z 04005KT 28/13 A3019 RMK A01 T02780134  RH  041%=      5-min Rain = 0
KCL1 141845Z 14006KT 28/14 A3019 RMK A01 T02770137  RH  042%=      5-min Rain = 0
KCL1 141846Z 13007KT 28/14 A3019 RMK A01 T02790136  RH  041%=      5-min Rain = 0
KCL1 141847Z 14006KT 28/14 A3019 RMK A01 T02800136  RH  041%=      5-min Rain = 0
KCL1 141848Z 13005KT 28/14 A3019 RMK A01 T02820135  RH  040%=      5-min Rain = 0
KCL1 141849Z 15005KT 28/14 A3019 RMK A01 T02830138  RH  041%=      5-min Rain = 0
KCL1 141850Z 14007KT 28/14 A302 RMK A01 T02840137  RH  040%=      5-min Rain = 0
KCL1 141851Z 13005KT 29/14 A302 RMK A01 T02850138  RH  041%=      5-min Rain = 0
KCL1 141852Z 10009KT 29/14 A302 RMK A01 T02850139  RH  041%=      5-min Rain = 0
KCL1 141853Z 10007KT 29/14 A302 RMK A01 T02860140  RH  041%=      5-min Rain = 0
KCL1 141854Z 08005KT 29/14 A3021 RMK A01 T02850135  RH  040%=      5-min Rain = 0
KCL1 141855Z 07003KT 28/13 A3021 RMK A01 T02820133  RH  040%=      5-min Rain = 0
KCL1 141856Z 10003KT 28/13 A3021 RMK A01 T02780133  RH  041%=      5-min Rain = 0
KCL1 141857Z 11002KT 28/13 A3021 RMK A01 T02770133  RH  041%=      5-min Rain = 0
KCL1 141858Z 11000KT 28/13 A3021 RMK A01 T02780130  RH  040%=      5-min Rain = 0
KCL1 141859Z 30001KT 28/13 A3021 RMK A01 T02790133  RH  041%=      5-min Rain = 0
KCL1 141900Z 25001KT 28/14 A3021 RMK A01 T02810136  RH  041%=      5-min Rain = 0
KCL1 141901Z 18001KT 28/14 A3021 RMK A01 T02840137  RH  040%=      5-min Rain = 0
KCL1 141902Z 10004KT 29/14 A3021 RMK A01 T02850137  RH  040%=      5-min Rain = 0
KCL1 141903Z 11003KT 29/14 A3021 RMK A01 T02860136  RH  040%=      5-min Rain = 0
KCL1 141904Z 09001KT 29/14 A3021 RMK A01 T02870136  RH  040%=      5-min Rain = 0
KCL1 141905Z 11003KT 29/14 A3021 RMK A01 T02870142  RH  041%=      5-min Rain = 0
KCL1 141906Z 11003KT 29/14 A3021 RMK A01 T02890136  RH  039%=      5-min Rain = 0
KCL1 141907Z 11003KT 29/14 A3021 RMK A01 T02890141  RH  041%=      5-min Rain = 0
KCL1 141908Z 04006KT 29/14 A3021 RMK A01 T02900142  RH  040%=      5-min Rain = 0
KCL1 141909Z 04008KT 29/14 A3021 RMK A01 T02920138  RH  039%=      5-min Rain = 0
KCL1 141910Z 05007KT 29/14 A302 RMK A01 T02900136  RH  039%=      5-min Rain = 0
KCL1 141911Z 06008KT 29/14 A302 RMK A01 T02890135  RH  039%=      5-min Rain = 0
KCL1 141912Z 05005KT 29/14 A302 RMK A01 T02890135  RH  039%=      5-min Rain = 0
KCL1 141913Z 05005KT 29/14 A302 RMK A01 T02880138  RH  040%=      5-min Rain = 0
KCL1 141914Z 06008KT 29/14 A302 RMK A01 T02900136  RH  039%=      5-min Rain = 0
KCL1 141915Z 06006KT 29/14 A302 RMK A01 T02890135  RH  039%=      5-min Rain = 0
KCL1 141916Z 07006KT 29/14 A302 RMK A01 T02890135  RH  039%=      5-min Rain = 0
KCL1 141917Z 05005KT 29/14 A302 RMK A01 T02880136  RH  039%=      5-min Rain = 0
KCL1 141918Z 03007KT 29/13 A302 RMK A01 T02870134  RH  039%=      5-min Rain = 0
KCL1 141919Z 03006KT 29/14 A302 RMK A01 T02860135  RH  039%=      5-min Rain = 0
KCL1 141920Z 02006KT 28/14 A302 RMK A01 T02840135  RH  040%=      5-min Rain = 0
KCL1 141921Z 02005KT 29/13 A302 RMK A01 T02850133  RH  039%=      5-min Rain = 0
KCL1 141922Z 00004KT 28/13 A3019 RMK A01 T02840133  RH  040%=      5-min Rain = 0
KCL1 141923Z 02005KT 29/13 A3019 RMK A01 T02850134  RH  039%=      5-min Rain = 0
KCL1 141924Z 01005G10KT 29/13 A3019 RMK A01 T02860134  RH  039%=      5-min Rain = 0
KCL1 141925Z 03008KT 29/14 A3019 RMK A01 T02880137  RH  040%=      5-min Rain = 0
KCL1 141926Z 05007KT 29/14 A3019 RMK A01 T02890138  RH  039%=      5-min Rain = 0
KCL1 141927Z 06010KT 29/14 A3019 RMK A01 T02920139  RH  039%=      5-min Rain = 0
KCL1 141928Z 07010KT 29/14 A3019 RMK A01 T02940137  RH  038%=      5-min Rain = 0
KCL1 141929Z 07009KT 29/14 A3019 RMK A01 T02920135  RH  038%=      5-min Rain = 0
KCL1 141930Z 07008KT 29/14 A3019 RMK A01 T02920137  RH  039%=      5-min Rain = 0
KCL1 141931Z 08008KT 29/13 A3019 RMK A01 T02920134  RH  038%=      5-min Rain = 0
KCL1 141932Z 08007KT 29/13 A3019 RMK A01 T02900133  RH  038%=      5-min Rain = 0
KCL1 141933Z 10008KT 29/13 A3019 RMK A01 T02880133  RH  038%=      5-min Rain = 0
KCL1 141934Z 10006KT 29/13 A3019 RMK A01 T02870133  RH  039%=      5-min Rain = 0
KCL1 141935Z 06008KT 29/14 A3019 RMK A01 T02860136  RH  040%=      5-min Rain = 0
KCL1 141936Z 07006KT 29/13 A3019 RMK A01 T02860133  RH  039%=      5-min Rain = 0
KCL1 141937Z 05006KT 28/13 A3019 RMK A01 T02840133  RH  039%=      5-min Rain = 0
KCL1 141938Z 05008KT 28/14 A3019 RMK A01 T02840135  RH  040%=      5-min Rain = 0
KCL1 141939Z 05006KT 29/13 A3019 RMK A01 T02850134  RH  040%=      5-min Rain = 0
KCL1 141940Z 05008KT 29/14 A3019 RMK A01 T02860135  RH  039%=      5-min Rain = 0
KCL1 141941Z 07007KT 29/13 A3019 RMK A01 T02860134  RH  039%=      5-min Rain = 0
KCL1 141942Z 08008KT 29/14 A3019 RMK A01 T02870136  RH  039%=      5-min Rain = 0
KCL1 141943Z 05007KT 29/13 A3019 RMK A01 T02880134  RH  039%=      5-min Rain = 0
KCL1 141944Z 04006KT 29/13 A3019 RMK A01 T02880133  RH  039%=      5-min Rain = 0
KCL1 141945Z 05005KT 29/13 A3019 RMK A01 T02860134  RH  039%=      5-min Rain = 0
KCL1 141946Z 02007KT 29/13 A3019 RMK A01 T02860134  RH  039%=      5-min Rain = 0
KCL1 141947Z 02004KT 29/13 A3019 RMK A01 T02850131  RH  039%=      5-min Rain = 0
KCL1 141948Z 01005KT 28/14 A3019 RMK A01 T02840135  RH  040%=      5-min Rain = 0
KCL1 141949Z 06009KT 29/13 A3019 RMK A01 T02850134  RH  040%=      5-min Rain = 0
KCL1 141950Z 06009KT 29/13 A3019 RMK A01 T02870133  RH  039%=      5-min Rain = 0
KCL1 141951Z 08008KT 29/13 A3019 RMK A01 T02870133  RH  039%=      5-min Rain = 0
KCL1 141952Z 07006KT 29/13 A3019 RMK A01 T02880133  RH  038%=      5-min Rain = 0
KCL1 141953Z 08007KT 29/13 A3019 RMK A01 T02880134  RH  039%=      5-min Rain = 0
KCL1 141954Z 08006KT 29/13 A3019 RMK A01 T02880133  RH  038%=      5-min Rain = 0
KCL1 141955Z 09004KT 29/13 A3019 RMK A01 T02880130  RH  038%=      5-min Rain = 0
KCL1 141956Z 09008KT 29/13 A3019 RMK A01 T02880134  RH  039%=      5-min Rain = 0
KCL1 141957Z 11006KT 29/13 A3019 RMK A01 T02890132  RH  038%=      5-min Rain = 0
KCL1 141958Z 08004KT 29/13 A3019 RMK A01 T02890133  RH  038%=      5-min Rain = 0
KCL1 141959Z 08008KT 29/14 A3019 RMK A01 T02910135  RH  038%=      5-min Rain = 0
KCL1 142000Z 07007KT 29/13 A3019 RMK A01 T02940130  RH  037%=      5-min Rain = 0
KCL1 142001Z 06003KT 29/13 A3019 RMK A01 T02930128  RH  036%=      5-min Rain = 0
KCL1 142002Z 06005KT 29/13 A3019 RMK A01 T02910129  RH  037%=      5-min Rain = 0
KCL1 142003Z 06005KT 29/13 A3019 RMK A01 T02910127  RH  037%=      5-min Rain = 0
KCL1 142004Z 03002KT 29/13 A3019 RMK A01 T02910125  RH  036%=      5-min Rain = 0
KCL1 142005Z 00001KT 29/13 A3019 RMK A01 T02900126  RH  036%=      5-min Rain = 0
KCL1 142006Z 05003KT 29/13 A3019 RMK A01 T02920131  RH  037%=      5-min Rain = 0
KCL1 142007Z 09006KT 29/13 A3019 RMK A01 T02940127  RH  036%=      5-min Rain = 0
KCL1 142008Z 11004KT 29/13 A3018 RMK A01 T02940125  RH  035%=      5-min Rain = 0
KCL1 142009Z 10004KT 29/13 A3018 RMK A01 T02930127  RH  036%=      5-min Rain = 0
KCL1 142010Z 06006KT 30/13 A3018 RMK A01 T02950127  RH  036%=      5-min Rain = 0
KCL1 142011Z 06004KT 30/13 A3018 RMK A01 T02950125  RH  035%=      5-min Rain = 0
KCL1 142012Z 04001KT 30/12 A3018 RMK A01 T02950124  RH  035%=      5-min Rain = 0
KCL1 142013Z 02001KT 30/12 A3018 RMK A01 T02950121  RH  034%=      5-min Rain = 0
KCL1 142014Z 27001KT 30/13 A3018 RMK A01 T02950127  RH  035%=      5-min Rain = 0
KCL1 142015Z 23001KT 30/13 A3018 RMK A01 T02970132  RH  036%=      5-min Rain = 0
KCL1 142016Z 31000KT 30/13 A3018 RMK A01 T03000131  RH  035%=      5-min Rain = 0
KCL1 142017Z 08003KT 30/13 A3018 RMK A01 T03020130  RH  035%=      5-min Rain = 0
KCL1 142018Z 02005KT 30/13 A3018 RMK A01 T03020131  RH  035%=      5-min Rain = 0
KCL1 142019Z 01005KT 30/13 A3018 RMK A01 T03020129  RH  035%=      5-min Rain = 0
KCL1 142020Z 01006KT 30/13 A3018 RMK A01 T03030129  RH  034%=      5-min Rain = 0
KCL1 142021Z 01005KT 30/13 A3018 RMK A01 T03030128  RH  034%=      5-min Rain = 0
KCL1 142022Z 02002KT 30/13 A3018 RMK A01 T03020130  RH  035%=      5-min Rain = 0
KCL1 142023Z 11003KT 30/13 A3018 RMK A01 T03020131  RH  035%=      5-min Rain = 0
KCL1 142024Z 11005KT 30/13 A3018 RMK A01 T03030126  RH  034%=      5-min Rain = 0
KCL1 142025Z 11003KT 30/13 A3018 RMK A01 T03030128  RH  034%=      5-min Rain = 0
KCL1 142026Z 12004KT 30/13 A3017 RMK A01 T03030125  RH  034%=      5-min Rain = 0
KCL1 142027Z 13004KT 30/13 A3017 RMK A01 T03020131  RH  035%=      5-min Rain = 0
KCL1 142028Z 14002KT 30/13 A3017 RMK A01 T03030129  RH  034%=      5-min Rain = 0
KCL1 142029Z 10003KT 31/13 A3017 RMK A01 T03060130  RH  034%=      5-min Rain = 0
KCL1 142030Z 10004KT 31/13 A3017 RMK A01 T03070129  RH  034%=      5-min Rain = 0
KCL1 142031Z 05004KT 31/13 A3017 RMK A01 T03080134  RH  035%=      5-min Rain = 0
KCL1 142032Z 09005KT 31/13 A3017 RMK A01 T03100130  RH  033%=      5-min Rain = 0
KCL1 142033Z 05005KT 31/13 A3017 RMK A01 T03100130  RH  033%=      5-min Rain = 0
KCL1 142034Z 06008KT 31/13 A3017 RMK A01 T03090130  RH  034%=      5-min Rain = 0
KCL1 142035Z 07006KT 31/13 A3017 RMK A01 T03060126  RH  033%=      5-min Rain = 0
KCL1 142036Z 06007KT 30/13 A3017 RMK A01 T03020126  RH  034%=      5-min Rain = 0
KCL1 142037Z 03006KT 30/13 A3017 RMK A01 T03010126  RH  034%=      5-min Rain = 0
KCL1 142038Z 03006KT 30/12 A3017 RMK A01 T03000123  RH  034%=      5-min Rain = 0
KCL1 142039Z 05005KT 30/12 A3017 RMK A01 T03000123  RH  034%=      5-min Rain = 0
KCL1 142040Z 01003KT 30/12 A3017 RMK A01 T02990122  RH  034%=      5-min Rain = 0
KCL1 142041Z 36004KT 30/13 A3017 RMK A01 T02990125  RH  034%=      5-min Rain = 0
KCL1 142042Z 34004KT 30/12 A3017 RMK A01 T03010123  RH  033%=      5-min Rain = 0
KCL1 142043Z 00003KT 30/12 A3017 RMK A01 T03010122  RH  033%=      5-min Rain = 0
KCL1 142044Z 00001KT 30/12 A3017 RMK A01 T03020123  RH  033%=      5-min Rain = 0
KCL1 142045Z 12002KT 30/13 A3017 RMK A01 T03040128  RH  034%=      5-min Rain = 0
KCL1 142046Z 05004KT 31/13 A3017 RMK A01 T03070127  RH  033%=      5-min Rain = 0
KCL1 142047Z 05006KT 31/12 A3017 RMK A01 T03080122  RH  032%=      5-min Rain = 0
KCL1 142048Z 03006KT 31/12 A3017 RMK A01 T03070122  RH  032%=      5-min Rain = 0
KCL1 142049Z 03005KT 31/12 A3017 RMK A01 T03060119  RH  032%=      5-min Rain = 0
KCL1 142050Z 04003KT 30/12 A3017 RMK A01 T03040119  RH  032%=      5-min Rain = 0
KCL1 142051Z 06005KT 30/12 A3016 RMK A01 T03030123  RH  033%=      5-min Rain = 0
KCL1 142052Z 06005KT 30/13 A3016 RMK A01 T03040125  RH  033%=      5-min Rain = 0
KCL1 142053Z 06006KT 31/12 A3016 RMK A01 T03070124  RH  033%=      5-min Rain = 0
KCL1 142054Z 07003KT 31/12 A3016 RMK A01 T03080123  RH  032%=      5-min Rain = 0
KCL1 142055Z 06004KT 31/12 A3016 RMK A01 T03070120  RH  032%=      5-min Rain = 0
KCL1 142056Z 06002KT 31/11 A3016 RMK A01 T03050114  RH  031%=      5-min Rain = 0
KCL1 142057Z 04002KT 30/12 A3016 RMK A01 T03040115  RH  031%=      5-min Rain = 0
KCL1 142058Z 02002KT 30/12 A3016 RMK A01 T03040120  RH  032%=      5-min Rain = 0
KCL1 142059Z 35001KT 30/12 A3016 RMK A01 T03040118  RH  032%=      5-min Rain = 0
KCL1 142100Z 33001KT 31/12 A3016 RMK A01 T03050119  RH  032%=      5-min Rain = 0
KCL1 142101Z 22001KT 31/12 A3016 RMK A01 T03060115  RH  031%=      5-min Rain = 0
KCL1 142102Z 22002KT 31/12 A3016 RMK A01 T03070118  RH  031%=      5-min Rain = 0
KCL1 142103Z 23002KT 31/12 A3016 RMK A01 T03080122  RH  032%=      5-min Rain = 0
KCL1 142104Z 20003KT 31/12 A3016 RMK A01 T03100117  RH  031%=      5-min Rain = 0
KCL1 142105Z 23003KT 31/12 A3016 RMK A01 T03090118  RH  031%=      5-min Rain = 0
KCL1 142106Z 25002KT 31/12 A3016 RMK A01 T03070121  RH  032%=      5-min Rain = 0
KCL1 142107Z 26003KT 31/12 A3016 RMK A01 T03090121  RH  032%=      5-min Rain = 0
KCL1 142108Z 28004KT 31/12 A3016 RMK A01 T03100119  RH  031%=      5-min Rain = 0
KCL1 142109Z 26003KT 31/12 A3016 RMK A01 T03100118  RH  031%=      5-min Rain = 0
KCL1 142110Z 33002G7KT 31/12 A3016 RMK A01 T03090122  RH  032%=      5-min Rain = 0
KCL1 142111Z 01005KT 31/13 A3016 RMK A01 T03090125  RH  032%=      5-min Rain = 0
KCL1 142112Z 36005KT 31/13 A3016 RMK A01 T03100129  RH  033%=      5-min Rain = 0
KCL1 142113Z 01006KT 31/13 A3016 RMK A01 T03110126  RH  032%=      5-min Rain = 0
KCL1 142114Z 02005KT 31/13 A3016 RMK A01 T03110126  RH  032%=      5-min Rain = 0
KCL1 142115Z 02006KT 31/12 A3016 RMK A01 T03110124  RH  032%=      5-min Rain = 0
KCL1 142116Z 01006KT 31/12 A3015 RMK A01 T03110123  RH  032%=      5-min Rain = 0
KCL1 142117Z 01006KT 31/13 A3015 RMK A01 T03100125  RH  032%=      5-min Rain = 0
KCL1 142118Z 03006KT 31/13 A3015 RMK A01 T03100127  RH  033%=      5-min Rain = 0
KCL1 142119Z 02005KT 31/12 A3015 RMK A01 T03110124  RH  032%=      5-min Rain = 0
KCL1 142120Z 03006KT 31/13 A3015 RMK A01 T03120125  RH  032%=      5-min Rain = 0
KCL1 142121Z 01007KT 31/13 A3015 RMK A01 T03110125  RH  032%=      5-min Rain = 0
KCL1 142122Z 01006KT 31/12 A3015 RMK A01 T03110124  RH  032%=      5-min Rain = 0
KCL1 142123Z 00005KT 31/12 A3015 RMK A01 T03100124  RH  032%=      5-min Rain = 0
KCL1 142124Z 01005KT 31/12 A3015 RMK A01 T03110122  RH  031%=      5-min Rain = 0
KCL1 142125Z 03003KT 31/12 A3015 RMK A01 T03100122  RH  032%=      5-min Rain = 0
KCL1 142126Z 05002KT 31/11 A3015 RMK A01 T03090113  RH  030%=      5-min Rain = 0
KCL1 142127Z 04004KT 31/12 A3015 RMK A01 T03080120  RH  031%=      5-min Rain = 0
KCL1 142128Z 04003KT 31/12 A3015 RMK A01 T03080119  RH  031%=      5-min Rain = 0
KCL1 142129Z 05003KT 31/12 A3015 RMK A01 T03080120  RH  031%=      5-min Rain = 0
KCL1 142130Z 03002KT 31/12 A3015 RMK A01 T03080118  RH  031%=      5-min Rain = 0
KCL1 142131Z 05001KT 31/12 A3015 RMK A01 T03080119  RH  031%=      5-min Rain = 0
KCL1 142132Z 04002KT 31/12 A3015 RMK A01 T03080119  RH  031%=      5-min Rain = 0
KCL1 142133Z 03001KT 31/12 A3015 RMK A01 T03090117  RH  031%=      5-min Rain = 0
KCL1 142134Z 07001KT 31/11 A3015 RMK A01 T03090114  RH  030%=      5-min Rain = 0
KCL1 142135Z 08001KT 31/11 A3015 RMK A01 T03090114  RH  030%=      5-min Rain = 0
KCL1 142136Z 00002KT 31/12 A3015 RMK A01 T03090117  RH  031%=      5-min Rain = 0
KCL1 142137Z 36001KT 31/12 A3014 RMK A01 T03100117  RH  030%=      5-min Rain = 0
KCL1 142138Z 31001KT 31/12 A3014 RMK A01 T03110120  RH  031%=      5-min Rain = 0
KCL1 142139Z 26002KT 31/12 A3014 RMK A01 T03140122  RH  031%=      5-min Rain = 0
KCL1 142140Z 25002KT 32/12 A3014 RMK A01 T03170118  RH  030%=      5-min Rain = 0
KCL1 142141Z 17001KT 32/12 A3014 RMK A01 T03190122  RH  030%=      5-min Rain = 0
KCL1 142142Z 16004KT 32/12 A3014 RMK A01 T03200119  RH  029%=      5-min Rain = 0
KCL1 142143Z 16003KT 32/11 A3014 RMK A01 T03210114  RH  028%=      5-min Rain = 0
KCL1 142144Z 19003KT 32/11 A3014 RMK A01 T03190114  RH  028%=      5-min Rain = 0
KCL1 142145Z 19003KT 32/11 A3014 RMK A01 T03170112  RH  028%=      5-min Rain = 0
KCL1 142146Z 17003KT 32/11 A3014 RMK A01 T03160112  RH  029%=      5-min Rain = 0
KCL1 142147Z 18004KT 32/12 A3014 RMK A01 T03150119  RH  030%=      5-min Rain = 0
KCL1 142148Z 17002KT 32/12 A3014 RMK A01 T03150116  RH  030%=      5-min Rain = 0
KCL1 142149Z 10003KT 32/12 A3014 RMK A01 T03150123  RH  031%=      5-min Rain = 0
KCL1 142150Z 09004KT 32/13 A3014 RMK A01 T03160126  RH  031%=      5-min Rain = 0
KCL1 142151Z 09004KT 32/13 A3014 RMK A01 T03160125  RH  031%=      5-min Rain = 0
KCL1 142152Z 05004KT 32/13 A3014 RMK A01 T03150128  RH  032%=      5-min Rain = 0
KCL1 142153Z 02004KT 31/13 A3014 RMK A01 T03140130  RH  033%=      5-min Rain = 0
KCL1 142154Z 06003KT 31/13 A3014 RMK A01 T03130134  RH  034%=      5-min Rain = 0
KCL1 142155Z 09003KT 31/13 A3014 RMK A01 T03130131  RH  033%=      5-min Rain = 0
KCL1 142156Z 07008KT 31/14 A3014 RMK A01 T03120137  RH  034%=      5-min Rain = 0
KCL1 142157Z 05008KT 31/14 A3014 RMK A01 T03140136  RH  034%=      5-min Rain = 0
KCL1 142158Z 04008KT 31/13 A3014 RMK A01 T03140134  RH  033%=      5-min Rain = 0
KCL1 142159Z 05010KT 31/13 A3014 RMK A01 T03120132  RH  033%=      5-min Rain = 0
KCL1 142200Z 05009KT 31/13 A3014 RMK A01 T03100133  RH  034%=      5-min Rain = 0
KCL1 142201Z 04009KT 31/13 A3014 RMK A01 T03100132  RH  034%=      5-min Rain = 0
KCL1 142202Z 02006KT 31/13 A3014 RMK A01 T03090129  RH  033%=      5-min Rain = 0
KCL1 142203Z 05006KT 31/13 A3014 RMK A01 T03080132  RH  034%=      5-min Rain = 0
KCL1 142204Z 06008KT 31/13 A3014 RMK A01 T03080133  RH  034%=      5-min Rain = 0
KCL1 142205Z 06010KT 31/14 A3014 RMK A01 T03120136  RH  034%=      5-min Rain = 0
KCL1 142206Z 06011KT 31/13 A3014 RMK A01 T03140132  RH  033%=      5-min Rain = 0
KCL1 142207Z 05009KT 31/13 A3014 RMK A01 T03140132  RH  033%=      5-min Rain = 0
KCL1 142208Z 04008KT 31/13 A3014 RMK A01 T03130131  RH  033%=      5-min Rain = 0
KCL1 142209Z 04008KT 31/13 A3014 RMK A01 T03130133  RH  033%=      5-min Rain = 0
KCL1 142210Z 09008KT 31/13 A3014 RMK A01 T03140133  RH  033%=      5-min Rain = 0
KCL1 142211Z 08005KT 31/13 A3014 RMK A01 T03140127  RH  032%=      5-min Rain = 0
KCL1 142212Z 09004KT 31/13 A3014 RMK A01 T03130129  RH  033%=      5-min Rain = 0
KCL1 142213Z 06005KT 31/13 A3014 RMK A01 T03120132  RH  033%=      5-min Rain = 0
KCL1 142214Z 05007KT 31/13 A3014 RMK A01 T03130130  RH  033%=      5-min Rain = 0
KCL1 142215Z 01005KT 31/13 A3014 RMK A01 T03130131  RH  033%=      5-min Rain = 0
KCL1 142216Z 03005KT 31/13 A3014 RMK A01 T03140131  RH  033%=      5-min Rain = 0
KCL1 142217Z 36005KT 31/13 A3014 RMK A01 T03140130  RH  032%=      5-min Rain = 0
KCL1 142218Z 05005KT 31/13 A3013 RMK A01 T03130129  RH  033%=      5-min Rain = 0
KCL1 142219Z 04003KT 31/13 A3014 RMK A01 T03120129  RH  033%=      5-min Rain = 0
KCL1 142220Z 04003KT 31/13 A3013 RMK A01 T03120126  RH  032%=      5-min Rain = 0
KCL1 142221Z 35004KT 31/13 A3013 RMK A01 T03120130  RH  033%=      5-min Rain = 0
KCL1 142222Z 03003KT 31/13 A3013 RMK A01 T03130130  RH  033%=      5-min Rain = 0
KCL1 142223Z 05005KT 32/13 A3013 RMK A01 T03150134  RH  033%=      5-min Rain = 0
KCL1 142224Z 04006KT 32/14 A3013 RMK A01 T03170136  RH  033%=      5-min Rain = 0
KCL1 142225Z 04007KT 32/13 A3013 RMK A01 T03180127  RH  031%=      5-min Rain = 0
KCL1 142226Z 03004KT 32/13 A3013 RMK A01 T03150126  RH  032%=      5-min Rain = 0
KCL1 142227Z 02003KT 31/13 A3013 RMK A01 T03130125  RH  032%=      5-min Rain = 0
KCL1 142228Z 01002KT 31/12 A3013 RMK A01 T03110124  RH  032%=      5-min Rain = 0
KCL1 142229Z 30002KT 31/13 A3013 RMK A01 T03110125  RH  032%=      5-min Rain = 0
KCL1 142230Z 30002KT 31/12 A3013 RMK A01 T03110123  RH  032%=      5-min Rain = 0
KCL1 142231Z 28001KT 31/12 A3013 RMK A01 T03120124  RH  032%=      5-min Rain = 0
KCL1 142232Z 23001KT 31/13 A3013 RMK A01 T03140127  RH  032%=      5-min Rain = 0
KCL1 142233Z 14002KT 32/13 A3013 RMK A01 T03160130  RH  032%=      5-min Rain = 0
KCL1 142234Z 04003KT 32/13 A3013 RMK A01 T03190132  RH  032%=      5-min Rain = 0
KCL1 142235Z 04005KT 32/13 A3013 RMK A01 T03190129  RH  031%=      5-min Rain = 0
KCL1 142236Z 04004KT 32/13 A3013 RMK A01 T03170125  RH  031%=      5-min Rain = 0
KCL1 142237Z 03004KT 32/12 A3013 RMK A01 T03150124  RH  031%=      5-min Rain = 0
KCL1 142238Z 05005KT 31/13 A3013 RMK A01 T03130126  RH  032%=      5-min Rain = 0
KCL1 142239Z 06005KT 31/13 A3013 RMK A01 T03130127  RH  032%=      5-min Rain = 0
KCL1 142240Z 08003KT 31/13 A3013 RMK A01 T03130126  RH  032%=      5-min Rain = 0
KCL1 142241Z 02003KT 31/13 A3013 RMK A01 T03140129  RH  032%=      5-min Rain = 0
KCL1 142242Z 01002KT 32/13 A3013 RMK A01 T03150126  RH  032%=      5-min Rain = 0
KCL1 142243Z 04001KT 32/13 A3013 RMK A01 T03160126  RH  031%=      5-min Rain = 0
KCL1 142244Z 35001KT 32/12 A3013 RMK A01 T03150124  RH  031%=      5-min Rain = 0
KCL1 142245Z 34001KT 32/13 A3013 RMK A01 T03150125  RH  031%=      5-min Rain = 0
KCL1 142246Z 34001KT 32/13 A3013 RMK A01 T03150125  RH  031%=      5-min Rain = 0
KCL1 142247Z 05000KT 32/13 A3013 RMK A01 T03150126  RH  031%=      5-min Rain = 0
KCL1 142248Z 03004KT 32/13 A3013 RMK A01 T03160128  RH  032%=      5-min Rain = 0
KCL1 142249Z 04002KT 32/12 A3013 RMK A01 T03170124  RH  031%=      5-min Rain = 0
KCL1 142250Z 04003KT 32/12 A3013 RMK A01 T03150124  RH  031%=      5-min Rain = 0
KCL1 142251Z 09002KT 31/12 A3013 RMK A01 T03140123  RH  031%=      5-min Rain = 0
KCL1 142252Z 09000KT 31/12 A3013 RMK A01 T03130123  RH  031%=      5-min Rain = 0
KCL1 142253Z 09000KT 31/13 A3013 RMK A01 T03130125  RH  032%=      5-min Rain = 0
KCL1 142254Z 05001KT 32/13 A3013 RMK A01 T03160128  RH  032%=      5-min Rain = 0
KCL1 142255Z 08002KT 32/13 A3013 RMK A01 T03180128  RH  031%=      5-min Rain = 0
KCL1 142256Z 06006KT 32/13 A3013 RMK A01 T03180130  RH  032%=      5-min Rain = 0
KCL1 142257Z 05007KT 32/13 A3013 RMK A01 T03180127  RH  031%=      5-min Rain = 0
KCL1 142258Z 05006KT 32/13 A3013 RMK A01 T03160126  RH  031%=      5-min Rain = 0
KCL1 142259Z 07006KT 31/13 A3012 RMK A01 T03140128  RH  032%=      5-min Rain = 0
KCL1 142300Z 06006KT 31/13 A3012 RMK A01 T03140127  RH  032%=      5-min Rain = 0
KCL1 142301Z 05008KT 31/13 A3012 RMK A01 T03140126  RH  032%=      5-min Rain = 0
KCL1 142302Z 05008KT 31/13 A3012 RMK A01 T03140127  RH  032%=      5-min Rain = 0
KCL1 142303Z 05008KT 31/13 A3012 RMK A01 T03140128  RH  032%=      5-min Rain = 0
KCL1 142304Z 06007KT 32/13 A3013 RMK A01 T03150126  RH  032%=      5-min Rain = 0
KCL1 142305Z 07006KT 32/13 A3013 RMK A01 T03150127  RH  032%=      5-min Rain = 0
KCL1 142306Z 08007KT 31/13 A3013 RMK A01 T03140126  RH  032%=      5-min Rain = 0
KCL1 142307Z 07006KT 31/12 A3013 RMK A01 T03140124  RH  031%=      5-min Rain = 0
KCL1 142308Z 08006KT 31/12 A3013 RMK A01 T03120123  RH  031%=      5-min Rain = 0
KCL1 142309Z 06005KT 31/13 A3013 RMK A01 T03120127  RH  032%=      5-min Rain = 0
KCL1 142310Z 05004KT 31/12 A3013 RMK A01 T03130123  RH  031%=      5-min Rain = 0
KCL1 142311Z 06005KT 31/13 A3013 RMK A01 T03120125  RH  032%=      5-min Rain = 0
KCL1 142312Z 08004KT 31/13 A3013 RMK A01 T03120126  RH  032%=      5-min Rain = 0
KCL1 142313Z 07004KT 31/13 A3013 RMK A01 T03130126  RH  032%=      5-min Rain = 0
KCL1 142314Z 07006KT 31/13 A3013 RMK A01 T03120126  RH  032%=      5-min Rain = 0
KCL1 142315Z 08005KT 31/13 A3013 RMK A01 T03120127  RH  032%=      5-min Rain = 0
KCL1 142316Z 08003KT 31/13 A3013 RMK A01 T03120126  RH  032%=      5-min Rain = 0
KCL1 142317Z 07007KT 31/13 A3013 RMK A01 T03120131  RH  033%=      5-min Rain = 0
KCL1 142318Z 07008KT 31/13 A3013 RMK A01 T03130127  RH  032%=      5-min Rain = 0
KCL1 142319Z 07007KT 31/13 A3013 RMK A01 T03130127  RH  032%=      5-min Rain = 0
KCL1 142320Z 07009KT 31/13 A3013 RMK A01 T03130129  RH  033%=      5-min Rain = 0
KCL1 142321Z 06008KT 31/13 A3013 RMK A01 T03140125  RH  032%=      5-min Rain = 0
KCL1 142322Z 06006KT 31/13 A3013 RMK A01 T03120125  RH  032%=      5-min Rain = 0
KCL1 142323Z 09007KT 31/13 A3013 RMK A01 T03110126  RH  032%=      5-min Rain = 0
KCL1 142324Z 09005KT 31/12 A3013 RMK A01 T03110124  RH  032%=      5-min Rain = 0
KCL1 142325Z 11002KT 31/13 A3013 RMK A01 T03110125  RH  032%=      5-min Rain = 0
KCL1 142326Z 08002KT 31/13 A3013 RMK A01 T03110127  RH  032%=      5-min Rain = 0
KCL1 142327Z 09003KT 31/13 A3012 RMK A01 T03110127  RH  032%=      5-min Rain = 0
KCL1 142328Z 08005KT 31/13 A3012 RMK A01 T03130127  RH  032%=      5-min Rain = 0
KCL1 142329Z 09007KT 31/13 A3012 RMK A01 T03130128  RH  032%=      5-min Rain = 0
KCL1 142330Z 09007KT 31/13 A3012 RMK A01 T03130126  RH  032%=      5-min Rain = 0
KCL1 142331Z 07006KT 31/13 A3012 RMK A01 T03130125  RH  032%=      5-min Rain = 0
KCL1 142332Z 06005KT 31/12 A3012 RMK A01 T03130124  RH  032%=      5-min Rain = 0
KCL1 142333Z 07005KT 31/13 A3012 RMK A01 T03120126  RH  032%=      5-min Rain = 0
KCL1 142334Z 06005KT 31/12 A3012 RMK A01 T03120123  RH  032%=      5-min Rain = 0
KCL1 142335Z 04005KT 31/12 A3012 RMK A01 T03120124  RH  032%=      5-min Rain = 0
KCL1 142336Z 05006KT 31/13 A3012 RMK A01 T03110126  RH  032%=      5-min Rain = 0
KCL1 142337Z 04005KT 31/13 A3012 RMK A01 T03120125  RH  032%=      5-min Rain = 0
KCL1 142338Z 05005KT 31/12 A3012 RMK A01 T03120124  RH  032%=      5-min Rain = 0
KCL1 142339Z 06005KT 31/13 A3012 RMK A01 T03120125  RH  032%=      5-min Rain = 0
KCL1 142340Z 07004KT 31/12 A3012 RMK A01 T03120122  RH  031%=      5-min Rain = 0
KCL1 142341Z 10004KT 31/13 A3012 RMK A01 T03110126  RH  032%=      5-min Rain = 0
KCL1 142342Z 08005KT 31/13 A3012 RMK A01 T03120129  RH  033%=      5-min Rain = 0
KCL1 142343Z 08007KT 31/13 A3012 RMK A01 T03130129  RH  033%=      5-min Rain = 0
KCL1 142344Z 08006KT 31/13 A3012 RMK A01 T03130129  RH  032%=      5-min Rain = 0
KCL1 142345Z 07006KT 31/13 A3012 RMK A01 T03130129  RH  032%=      5-min Rain = 0
KCL1 142346Z 07005KT 31/13 A3012 RMK A01 T03130127  RH  032%=      5-min Rain = 0
KCL1 142347Z 08005KT 31/13 A3012 RMK A01 T03130126  RH  032%=      5-min Rain = 0
KCL1 142348Z 08006KT 31/13 A3012 RMK A01 T03120128  RH  032%=      5-min Rain = 0
KCL1 142349Z 09008KT 31/13 A3012 RMK A01 T03130130  RH  033%=      5-min Rain = 0
KCL1 142350Z 09007KT 31/13 A3012 RMK A01 T03120127  RH  032%=      5-min Rain = 0
KCL1 142351Z 08007KT 31/13 A3012 RMK A01 T03120128  RH  032%=      5-min Rain = 0
KCL1 142352Z 07007KT 31/13 A3012 RMK A01 T03120130  RH  033%=      5-min Rain = 0
KCL1 142353Z 08007KT 31/13 A3012 RMK A01 T03120128  RH  032%=      5-min Rain = 0
KCL1 142354Z 08008KT 31/13 A3012 RMK A01 T03120131  RH  033%=      5-min Rain = 0
KCL1 142355Z 08006KT 31/13 A3012 RMK A01 T03120130  RH  033%=      5-min Rain = 0
KCL1 142356Z 06009KT 31/13 A3012 RMK A01 T03120130  RH  033%=      5-min Rain = 0
KCL1 142357Z 07008KT 31/13 A3012 RMK A01 T03120130  RH  033%=      5-min Rain = 0
KCL1 142358Z 07006KT 31/13 A3012 RMK A01 T03110130  RH  033%=      5-min Rain = 0
KCL1 142359Z 06005KT 31/13 A3012 RMK A01 T03110131  RH  033%=      5-min Rain = 0
KCL1 150000Z 06005KT 31/13 A3012 RMK A01 T03110132  RH  034%=      5-min Rain = 0
KCL1 150001Z 06005KT 31/13 A3012 RMK A01 T03110129  RH  033%=      5-min Rain = 0
KCL1 150002Z 06005KT 31/13 A3012 RMK A01 T03100129  RH  033%=      5-min Rain = 0
KCL1 150003Z 06004KT 31/13 A3012 RMK A01 T03090131  RH  034%=      5-min Rain = 0
KCL1 150004Z 06005KT 31/13 A3012 RMK A01 T03090132  RH  034%=      5-min Rain = 0
KCL1 150005Z 06008KT 31/13 A3012 RMK A01 T03090131  RH  034%=      5-min Rain = 0
KCL1 150006Z 06008KT 31/13 A3012 RMK A01 T03100130  RH  033%=      5-min Rain = 0
KCL1 150007Z 06008KT 31/13 A3012 RMK A01 T03100129  RH  033%=      5-min Rain = 0
KCL1 150008Z 07007KT 31/13 A3012 RMK A01 T03090128  RH  033%=      5-min Rain = 0
KCL1 150009Z 07006KT 31/13 A3012 RMK A01 T03080129  RH  033%=      5-min Rain = 0
KCL1 150010Z 08007KT 31/13 A3012 RMK A01 T03080130  RH  034%=      5-min Rain = 0
KCL1 150011Z 09009KT 31/13 A3012 RMK A01 T03080127  RH  033%=      5-min Rain = 0
KCL1 150012Z 08008KT 31/13 A3012 RMK A01 T03080129  RH  033%=      5-min Rain = 0
KCL1 150013Z 07008KT 31/13 A3012 RMK A01 T03080130  RH  034%=      5-min Rain = 0
KCL1 150014Z 07006KT 31/13 A3012 RMK A01 T03080127  RH  033%=      5-min Rain = 0
KCL1 150015Z 07005KT 31/13 A3012 RMK A01 T03070128  RH  033%=      5-min Rain = 0
KCL1 150016Z 07004KT 31/13 A3012 RMK A01 T03070132  RH  034%=      5-min Rain = 0
KCL1 150017Z 07005KT 31/13 A3012 RMK A01 T03080131  RH  034%=      5-min Rain = 0
KCL1 150018Z 07004KT 31/13 A3012 RMK A01 T03080132  RH  034%=      5-min Rain = 0
KCL1 150019Z 06005KT 31/13 A3012 RMK A01 T03080131  RH  034%=      5-min Rain = 0
KCL1 150020Z 08007KT 31/13 A3012 RMK A01 T03080131  RH  034%=      5-min Rain = 0
KCL1 150021Z 08006KT 31/13 A3012 RMK A01 T03070131  RH  034%=      5-min Rain = 0
KCL1 150022Z 07007KT 31/13 A3012 RMK A01 T03070133  RH  034%=      5-min Rain = 0
KCL1 150023Z 08008KT 31/13 A3012 RMK A01 T03070132  RH  034%=      5-min Rain = 0
KCL1 150024Z 08007KT 31/13 A3012 RMK A01 T03060130  RH  034%=      5-min Rain = 0
KCL1 150025Z 07006KT 31/13 A3012 RMK A01 T03060131  RH  034%=      5-min Rain = 0
KCL1 150026Z 07007KT 31/13 A3012 RMK A01 T03050131  RH  034%=      5-min Rain = 0
KCL1 150027Z 07008KT 31/13 A3012 RMK A01 T03050132  RH  035%=      5-min Rain = 0
KCL1 150028Z 07008KT 31/13 A3012 RMK A01 T03050130  RH  034%=      5-min Rain = 0
KCL1 150029Z 07008KT 31/13 A3012 RMK A01 T03050131  RH  035%=      5-min Rain = 0
KCL1 150030Z 07007KT 30/13 A3012 RMK A01 T03040129  RH  034%=      5-min Rain = 0
KCL1 150031Z 06007KT 30/13 A3012 RMK A01 T03040129  RH  034%=      5-min Rain = 0
KCL1 150032Z 05006KT 30/13 A3012 RMK A01 T03040131  RH  035%=      5-min Rain = 0
KCL1 150033Z 05007KT 30/13 A3012 RMK A01 T03040130  RH  035%=      5-min Rain = 0
KCL1 150034Z 05006KT 30/13 A3012 RMK A01 T03040131  RH  035%=      5-min Rain = 0
KCL1 150035Z 06005KT 30/13 A3012 RMK A01 T03040134  RH  035%=      5-min Rain = 0
KCL1 150036Z 07006KT 30/14 A3012 RMK A01 T03030135  RH  036%=      5-min Rain = 0
KCL1 150037Z 07008KT 30/13 A3012 RMK A01 T03030132  RH  035%=      5-min Rain = 0
KCL1 150038Z 07006KT 30/13 A3012 RMK A01 T03030131  RH  035%=      5-min Rain = 0
KCL1 150039Z 08006KT 30/13 A3012 RMK A01 T03030131  RH  035%=      5-min Rain = 0
KCL1 150040Z 09005KT 30/13 A3012 RMK A01 T03030132  RH  035%=      5-min Rain = 0
KCL1 150041Z 09006KT 30/13 A3012 RMK A01 T03030133  RH  035%=      5-min Rain = 0
KCL1 150042Z 09008KT 30/13 A3012 RMK A01 T03020132  RH  035%=      5-min Rain = 0
KCL1 150043Z 08008KT 30/13 A3012 RMK A01 T03020132  RH  035%=      5-min Rain = 0
KCL1 150044Z 08007KT 30/13 A3012 RMK A01 T03010132  RH  035%=      5-min Rain = 0
KCL1 150045Z 08008KT 30/13 A3012 RMK A01 T03000133  RH  036%=      5-min Rain = 0
KCL1 150046Z 07007KT 30/13 A3012 RMK A01 T03000133  RH  036%=      5-min Rain = 0
KCL1 150047Z 07006KT 30/14 A3012 RMK A01 T03000135  RH  037%=      5-min Rain = 0
KCL1 150048Z 06008KT 30/13 A3012 RMK A01 T02990133  RH  036%=      5-min Rain = 0
KCL1 150049Z 06007KT 30/13 A3012 RMK A01 T02980132  RH  036%=      5-min Rain = 0
KCL1 150050Z 06007KT 30/13 A3012 RMK A01 T02980133  RH  036%=      5-min Rain = 0
KCL1 150051Z 06007KT 30/13 A3012 RMK A01 T02980134  RH  037%=      5-min Rain = 0
KCL1 150052Z 06005KT 30/13 A3012 RMK A01 T02970134  RH  037%=      5-min Rain = 0
KCL1 150053Z 06005KT 30/14 A3012 RMK A01 T02960136  RH  037%=      5-min Rain = 0
KCL1 150054Z 06006KT 29/14 A3012 RMK A01 T02940137  RH  038%=      5-min Rain = 0
KCL1 150055Z 06006KT 29/14 A3013 RMK A01 T02930136  RH  038%=      5-min Rain = 0
KCL1 150056Z 06006KT 29/14 A3013 RMK A01 T02910136  RH  039%=      5-min Rain = 0
KCL1 150057Z 06006KT 29/14 A3013 RMK A01 T02900137  RH  039%=      5-min Rain = 0
KCL1 150058Z 06006KT 29/14 A3013 RMK A01 T02890137  RH  039%=      5-min Rain = 0
KCL1 150059Z 07006KT 29/14 A3013 RMK A01 T02890138  RH  040%=      5-min Rain = 0
KCL1 150100Z 07006KT 29/14 A3013 RMK A01 T02880139  RH  040%=      5-min Rain = 0
KCL1 150101Z 07006KT 29/14 A3013 RMK A01 T02870139  RH  040%=      5-min Rain = 0
KCL1 150102Z 08006KT 29/14 A3013 RMK A01 T02850138  RH  040%=      5-min Rain = 0
KCL1 150103Z 08006KT 29/14 A3013 RMK A01 T02850138  RH  041%=      5-min Rain = 0
KCL1 150104Z 08006KT 28/14 A3013 RMK A01 T02840138  RH  041%=      5-min Rain = 0
KCL1 150105Z 08005KT 28/14 A3013 RMK A01 T02830139  RH  041%=      5-min Rain = 0
KCL1 150106Z 08006KT 28/14 A3013 RMK A01 T02820139  RH  042%=      5-min Rain = 0
KCL1 150107Z 08006KT 28/14 A3013 RMK A01 T02800138  RH  042%=      5-min Rain = 0
KCL1 150108Z 08007KT 28/14 A3013 RMK A01 T02800138  RH  042%=      5-min Rain = 0
KCL1 150109Z 07007KT 28/14 A3013 RMK A01 T02790137  RH  042%=      5-min Rain = 0
KCL1 150110Z 07006KT 28/14 A3013 RMK A01 T02780137  RH  042%=      5-min Rain = 0
KCL1 150111Z 08007KT 28/14 A3013 RMK A01 T02770137  RH  042%=      5-min Rain = 0
KCL1 150112Z 07008KT 28/14 A3013 RMK A01 T02770136  RH  042%=      5-min Rain = 0
KCL1 150113Z 07007KT 28/14 A3013 RMK A01 T02770136  RH  042%=      5-min Rain = 0
KCL1 150114Z 07007KT 28/14 A3013 RMK A01 T02760137  RH  042%=      5-min Rain = 0
KCL1 150115Z 07007KT 28/14 A3013 RMK A01 T02750136  RH  042%=      5-min Rain = 0
KCL1 150116Z 07007KT 28/14 A3013 RMK A01 T02750137  RH  043%=      5-min Rain = 0
KCL1 150117Z 07007KT 27/14 A3013 RMK A01 T02730137  RH  043%=      5-min Rain = 0
KCL1 150118Z 08007KT 27/14 A3013 RMK A01 T02720137  RH  043%=      5-min Rain = 0
KCL1 150119Z 08007KT 27/14 A3013 RMK A01 T02710137  RH  044%=      5-min Rain = 0
KCL1 150120Z 08007KT 27/14 A3013 RMK A01 T02710138  RH  044%=      5-min Rain = 0
KCL1 150121Z 08007KT 27/14 A3013 RMK A01 T02700138  RH  044%=      5-min Rain = 0
KCL1 150122Z 08007KT 27/14 A3013 RMK A01 T02690138  RH  044%=      5-min Rain = 0
KCL1 150123Z 08007KT 27/14 A3013 RMK A01 T02680138  RH  045%=      5-min Rain = 0
KCL1 150124Z 08007KT 27/14 A3013 RMK A01 T02670138  RH  045%=      5-min Rain = 0
KCL1 150125Z 08007KT 27/14 A3013 RMK A01 T02660138  RH  045%=      5-min Rain = 0
KCL1 150126Z 08007KT 27/14 A3013 RMK A01 T02650138  RH  046%=      5-min Rain = 0
KCL1 150127Z 08007KT 27/14 A3013 RMK A01 T02650139  RH  046%=      5-min Rain = 0
KCL1 150128Z 08007KT 26/14 A3013 RMK A01 T02640139  RH  046%=      5-min Rain = 0
KCL1 150129Z 08007KT 26/14 A3013 RMK A01 T02630139  RH  046%=      5-min Rain = 0
KCL1 150130Z 08007KT 26/14 A3013 RMK A01 T02620139  RH  046%=      5-min Rain = 0
KCL1 150131Z 08007KT 26/14 A3013 RMK A01 T02620139  RH  047%=      5-min Rain = 0
KCL1 150132Z 08007KT 26/14 A3013 RMK A01 T02610139  RH  047%=      5-min Rain = 0
KCL1 150133Z 08007KT 26/14 A3013 RMK A01 T02600139  RH  047%=      5-min Rain = 0
KCL1 150134Z 08007KT 26/14 A3013 RMK A01 T02600139  RH  047%=      5-min Rain = 0
KCL1 150135Z 08007KT 26/14 A3014 RMK A01 T02590139  RH  047%=      5-min Rain = 0
KCL1 150136Z 08007KT 26/14 A3014 RMK A01 T02580139  RH  048%=      5-min Rain = 0
KCL1 150137Z 08007KT 26/14 A3014 RMK A01 T02580139  RH  048%=      5-min Rain = 0
KCL1 150138Z 08006KT 26/14 A3014 RMK A01 T02570139  RH  048%=      5-min Rain = 0
KCL1 150139Z 08007KT 26/14 A3014 RMK A01 T02560139  RH  048%=      5-min Rain = 0
KCL1 150140Z 08007KT 26/14 A3014 RMK A01 T02550139  RH  049%=      5-min Rain = 0
KCL1 150141Z 08007KT 26/14 A3014 RMK A01 T02550139  RH  049%=      5-min Rain = 0
KCL1 150142Z 08007KT 25/14 A3014 RMK A01 T02540139  RH  049%=      5-min Rain = 0
KCL1 150143Z 08007KT 25/14 A3014 RMK A01 T02540139  RH  049%=      5-min Rain = 0
KCL1 150144Z 08007KT 25/14 A3014 RMK A01 T02530139  RH  049%=      5-min Rain = 0
KCL1 150145Z 08007KT 25/14 A3014 RMK A01 T02530139  RH  049%=      5-min Rain = 0
KCL1 150146Z 08007KT 25/14 A3014 RMK A01 T02530139  RH  049%=      5-min Rain = 0
KCL1 150147Z 08007KT 25/14 A3014 RMK A01 T02530138  RH  049%=      5-min Rain = 0
KCL1 150148Z 08007KT 25/14 A3014 RMK A01 T02530138  RH  049%=      5-min Rain = 0
KCL1 150149Z 08007KT 25/14 A3014 RMK A01 T02530139  RH  049%=      5-min Rain = 0
KCL1 150150Z 08007KT 25/14 A3014 RMK A01 T02530139  RH  049%=      5-min Rain = 0
KCL1 150151Z 08007KT 25/14 A3014 RMK A01 T02530139  RH  049%=      5-min Rain = 0
KCL1 150152Z 09008KT 25/14 A3014 RMK A01 T02520140  RH  050%=      5-min Rain = 0
KCL1 150153Z 09008KT 25/14 A3014 RMK A01 T02510140  RH  050%=      5-min Rain = 0
KCL1 150154Z 09008KT 25/14 A3014 RMK A01 T02510140  RH  050%=      5-min Rain = 0
KCL1 150155Z 09008KT 25/14 A3014 RMK A01 T02500141  RH  051%=      5-min Rain = 0
KCL1 150156Z 09008KT 25/14 A3014 RMK A01 T02490140  RH  051%=      5-min Rain = 0
KCL1 150157Z 09008KT 25/14 A3014 RMK A01 T02480139  RH  051%=      5-min Rain = 0
KCL1 150158Z 09009KT 25/14 A3014 RMK A01 T02480139  RH  051%=      5-min Rain = 0
KCL1 150159Z 09009KT 25/14 A3014 RMK A01 T02480139  RH  051%=      5-min Rain = 0
KCL1 150200Z 09009KT 25/14 A3014 RMK A01 T02470139  RH  051%=      5-min Rain = 0
KCL1 150201Z 09009KT 25/14 A3014 RMK A01 T02470139  RH  051%=      5-min Rain = 0
KCL1 150202Z 09009KT 25/14 A3014 RMK A01 T02470139  RH  051%=      5-min Rain = 0
KCL1 150203Z 09009KT 25/14 A3014 RMK A01 T02460139  RH  051%=      5-min Rain = 0
KCL1 150204Z 09009KT 25/14 A3014 RMK A01 T02460139  RH  051%=      5-min Rain = 0
KCL1 150205Z 10009KT 25/14 A3014 RMK A01 T02460139  RH  052%=      5-min Rain = 0
KCL1 150206Z 10009KT 25/14 A3014 RMK A01 T02450139  RH  052%=      5-min Rain = 0
KCL1 150207Z 10008KT 25/14 A3014 RMK A01 T02450140  RH  052%=      5-min Rain = 0
KCL1 150208Z 10009KT 24/14 A3014 RMK A01 T02440139  RH  052%=      5-min Rain = 0
KCL1 150209Z 10009KT 24/14 A3014 RMK A01 T02440140  RH  052%=      5-min Rain = 0
KCL1 150210Z 10009KT 24/14 A3014 RMK A01 T02440140  RH  052%=      5-min Rain = 0
KCL1 150211Z 10008KT 24/14 A3015 RMK A01 T02440140  RH  052%=      5-min Rain = 0
KCL1 150212Z 10008KT 25/14 A3015 RMK A01 T02450140  RH  052%=      5-min Rain = 0
KCL1 150213Z 10008KT 25/14 A3015 RMK A01 T02460141  RH  052%=      5-min Rain = 0
KCL1 150214Z 10009KT 25/14 A3015 RMK A01 T02470141  RH  052%=      5-min Rain = 0
KCL1 150215Z 10008KT 25/14 A3015 RMK A01 T02470142  RH  052%=      5-min Rain = 0
KCL1 150216Z 10009KT 25/14 A3015 RMK A01 T02480143  RH  052%=      5-min Rain = 0
KCL1 150217Z 10009KT 25/14 A3015 RMK A01 T02490144  RH  052%=      5-min Rain = 0
KCL1 150218Z 10009KT 25/14 A3015 RMK A01 T02500144  RH  052%=      5-min Rain = 0
KCL1 150219Z 10009KT 25/14 A3015 RMK A01 T02510144  RH  052%=      5-min Rain = 0
KCL1 150220Z 10009KT 25/15 A3015 RMK A01 T02520145  RH  051%=      5-min Rain = 0
KCL1 150221Z 10009KT 25/15 A3015 RMK A01 T02520145  RH  051%=      5-min Rain = 0
KCL1 150222Z 10008KT 25/15 A3015 RMK A01 T02530145  RH  051%=      5-min Rain = 0
KCL1 150223Z 10008KT 25/15 A3015 RMK A01 T02540146  RH  051%=      5-min Rain = 0
KCL1 150224Z 10008KT 25/15 A3015 RMK A01 T02540146  RH  051%=      5-min Rain = 0
KCL1 150225Z 11008KT 26/15 A3015 RMK A01 T02550146  RH  051%=      5-min Rain = 0
KCL1 150226Z 11008KT 26/15 A3015 RMK A01 T02550147  RH  051%=      5-min Rain = 0
KCL1 150227Z 11008KT 26/15 A3015 RMK A01 T02560147  RH  051%=      5-min Rain = 0
KCL1 150228Z 11008KT 26/15 A3015 RMK A01 T02560147  RH  051%=      5-min Rain = 0
KCL1 150229Z 10008KT 26/15 A3015 RMK A01 T02560148  RH  051%=      5-min Rain = 0
KCL1 150230Z 10008KT 26/15 A3015 RMK A01 T02570148  RH  051%=      5-min Rain = 0
KCL1 150231Z 11008KT 26/15 A3015 RMK A01 T02570149  RH  051%=      5-min Rain = 0
KCL1 150232Z 10008KT 26/15 A3015 RMK A01 T02570149  RH  051%=      5-min Rain = 0
KCL1 150233Z 10008KT 26/15 A3015 RMK A01 T02570149  RH  051%=      5-min Rain = 0
KCL1 150234Z 10008KT 26/15 A3015 RMK A01 T02560150  RH  052%=      5-min Rain = 0
KCL1 150235Z 10007KT 26/15 A3015 RMK A01 T02560150  RH  052%=      5-min Rain = 0
KCL1 150236Z 10007KT 26/15 A3015 RMK A01 T02560150  RH  052%=      5-min Rain = 0
KCL1 150237Z 10007KT 26/15 A3015 RMK A01 T02560150  RH  052%=      5-min Rain = 0
KCL1 150238Z 10007KT 26/15 A3015 RMK A01 T02550150  RH  052%=      5-min Rain = 0
KCL1 150239Z 10007KT 26/15 A3015 RMK A01 T02550150  RH  052%=      5-min Rain = 0
KCL1 150240Z 10007KT 26/15 A3015 RMK A01 T02550151  RH  053%=      5-min Rain = 0
KCL1 150241Z 10007KT 25/15 A3015 RMK A01 T02540151  RH  053%=      5-min Rain = 0
KCL1 150242Z 10007KT 25/15 A3015 RMK A01 T02530151  RH  053%=      5-min Rain = 0
KCL1 150243Z 10007KT 25/15 A3015 RMK A01 T02530151  RH  053%=      5-min Rain = 0
KCL1 150244Z 10007KT 25/15 A3015 RMK A01 T02520151  RH  053%=      5-min Rain = 0
KCL1 150245Z 10007KT 25/15 A3016 RMK A01 T02520151  RH  054%=      5-min Rain = 0
KCL1 150246Z 10007KT 25/15 A3016 RMK A01 T02510151  RH  054%=      5-min Rain = 0
KCL1 150247Z 10007KT 25/15 A3016 RMK A01 T02510151  RH  054%=      5-min Rain = 0
KCL1 150248Z 10007KT 25/15 A3016 RMK A01 T02500151  RH  054%=      5-min Rain = 0
KCL1 150249Z 10007KT 25/15 A3016 RMK A01 T02500151  RH  054%=      5-min Rain = 0
KCL1 150250Z 10007KT 25/15 A3016 RMK A01 T02490151  RH  054%=      5-min Rain = 0
KCL1 150251Z 10007KT 25/15 A3016 RMK A01 T02490151  RH  055%=      5-min Rain = 0
KCL1 150252Z 10007KT 25/15 A3016 RMK A01 T02480152  RH  055%=      5-min Rain = 0
KCL1 150253Z 10007KT 25/15 A3016 RMK A01 T02480151  RH  055%=      5-min Rain = 0
KCL1 150254Z 10007KT 25/15 A3016 RMK A01 T02480152  RH  055%=      5-min Rain = 0
KCL1 150255Z 10007KT 25/15 A3016 RMK A01 T02480152  RH  055%=      5-min Rain = 0
KCL1 150256Z 10007KT 25/15 A3016 RMK A01 T02470151  RH  055%=      5-min Rain = 0
KCL1 150257Z 10007KT 25/15 A3016 RMK A01 T02470151  RH  055%=      5-min Rain = 0
KCL1 150258Z 10007KT 25/15 A3016 RMK A01 T02480151  RH  055%=      5-min Rain = 0
KCL1 150259Z 10008KT 25/15 A3016 RMK A01 T02480151  RH  055%=      5-min Rain = 0
KCL1 150300Z 10007KT 25/15 A3016 RMK A01 T02480151  RH  055%=      5-min Rain = 0
KCL1 150301Z 10008KT 25/15 A3016 RMK A01 T02480151  RH  055%=      5-min Rain = 0
KCL1 150302Z 10008KT 25/15 A3016 RMK A01 T02490151  RH  055%=      5-min Rain = 0
KCL1 150303Z 10008KT 25/15 A3016 RMK A01 T02490151  RH  055%=      5-min Rain = 0
KCL1 150304Z 10009KT 25/15 A3016 RMK A01 T02490151  RH  054%=      5-min Rain = 0
KCL1 150305Z 11009KT 25/15 A3016 RMK A01 T02500150  RH  054%=      5-min Rain = 0
KCL1 150306Z 11008KT 25/15 A3016 RMK A01 T02520150  RH  053%=      5-min Rain = 0
KCL1 150307Z 11009KT 25/15 A3016 RMK A01 T02530150  RH  053%=      5-min Rain = 0
KCL1 150308Z 11008KT 25/15 A3016 RMK A01 T02530149  RH  052%=      5-min Rain = 0
KCL1 150309Z 11008KT 25/15 A3016 RMK A01 T02540149  RH  052%=      5-min Rain = 0
KCL1 150310Z 10008KT 26/15 A3016 RMK A01 T02550148  RH  051%=      5-min Rain = 0
KCL1 150311Z 11009KT 26/15 A3016 RMK A01 T02560147  RH  051%=      5-min Rain = 0
KCL1 150312Z 11009KT 26/15 A3016 RMK A01 T02570146  RH  050%=      5-min Rain = 0
KCL1 150313Z 11009KT 26/15 A3016 RMK A01 T02580145  RH  050%=      5-min Rain = 0
KCL1 150314Z 11010KT 26/15 A3016 RMK A01 T02580145  RH  049%=      5-min Rain = 0
KCL1 150315Z 11009KT 26/14 A3016 RMK A01 T02590144  RH  049%=      5-min Rain = 0
KCL1 150316Z 11009KT 26/14 A3016 RMK A01 T02600143  RH  049%=      5-min Rain = 0
KCL1 150317Z 11009KT 26/14 A3016 RMK A01 T02600143  RH  048%=      5-min Rain = 0
KCL1 150318Z 11009KT 26/14 A3016 RMK A01 T02600142  RH  048%=      5-min Rain = 0
KCL1 150319Z 11009KT 26/14 A3016 RMK A01 T02600142  RH  048%=      5-min Rain = 0
KCL1 150320Z 11009KT 26/14 A3017 RMK A01 T02600142  RH  048%=      5-min Rain = 0
KCL1 150321Z 11009KT 26/14 A3017 RMK A01 T02600141  RH  048%=      5-min Rain = 0
KCL1 150322Z 11010KT 26/14 A3017 RMK A01 T02600140  RH  048%=      5-min Rain = 0
KCL1 150323Z 11009KT 26/14 A3017 RMK A01 T02600140  RH  048%=      5-min Rain = 0
KCL1 150324Z 11010KT 26/14 A3017 RMK A01 T02610141  RH  048%=      5-min Rain = 0
KCL1 150325Z 11009KT 26/14 A3017 RMK A01 T02610140  RH  047%=      5-min Rain = 0
KCL1 150326Z 11009KT 26/14 A3017 RMK A01 T02610140  RH  047%=      5-min Rain = 0
KCL1 150327Z 11010KT 26/14 A3017 RMK A01 T02610140  RH  047%=      5-min Rain = 0
KCL1 150328Z 11010KT 26/14 A3017 RMK A01 T02610140  RH  047%=      5-min Rain = 0
KCL1 150329Z 11009KT 26/14 A3017 RMK A01 T02610140  RH  047%=      5-min Rain = 0
KCL1 150330Z 11009KT 26/14 A3017 RMK A01 T02610140  RH  047%=      5-min Rain = 0
KCL1 150331Z 11008KT 26/14 A3017 RMK A01 T02610140  RH  047%=      5-min Rain = 0
KCL1 150332Z 11007KT 26/14 A3017 RMK A01 T02610140  RH  047%=      5-min Rain = 0
KCL1 150333Z 11008KT 26/14 A3017 RMK A01 T02610140  RH  047%=      5-min Rain = 0
KCL1 150334Z 11008KT 26/14 A3017 RMK A01 T02610140  RH  047%=      5-min Rain = 0
KCL1 150335Z 11009KT 26/14 A3017 RMK A01 T02610140  RH  047%=      5-min Rain = 0
KCL1 150336Z 11008KT 26/14 A3018 RMK A01 T02610140  RH  047%=      5-min Rain = 0
KCL1 150337Z 11008KT 26/14 A3018 RMK A01 T02610140  RH  047%=      5-min Rain = 0
KCL1 150338Z 11008KT 26/14 A3018 RMK A01 T02610140  RH  047%=      5-min Rain = 0
KCL1 150339Z 11008KT 26/14 A3018 RMK A01 T02610140  RH  047%=      5-min Rain = 0
KCL1 150340Z 11009KT 26/14 A3018 RMK A01 T02620140  RH  047%=      5-min Rain = 0
KCL1 150341Z 11008KT 26/14 A3018 RMK A01 T02620140  RH  047%=      5-min Rain = 0
KCL1 150342Z 11007KT 26/14 A3018 RMK A01 T02620141  RH  047%=      5-min Rain = 0
KCL1 150343Z 12007KT 26/14 A3018 RMK A01 T02620142  RH  047%=      5-min Rain = 0
KCL1 150344Z 11008KT 26/14 A3018 RMK A01 T02610142  RH  048%=      5-min Rain = 0
KCL1 150345Z 11007KT 26/14 A3018 RMK A01 T02610142  RH  048%=      5-min Rain = 0
KCL1 150346Z 11008KT 26/14 A3018 RMK A01 T02610142  RH  048%=      5-min Rain = 0
KCL1 150347Z 11007KT 26/14 A3018 RMK A01 T02610143  RH  048%=      5-min Rain = 0
KCL1 150348Z 12009KT 26/14 A3018 RMK A01 T02610143  RH  048%=      5-min Rain = 0
KCL1 150349Z 11009KT 26/14 A3018 RMK A01 T02610144  RH  048%=      5-min Rain = 0
KCL1 150350Z 11009KT 26/15 A3018 RMK A01 T02610145  RH  049%=      5-min Rain = 0
KCL1 150351Z 12006KT 26/15 A3018 RMK A01 T02620146  RH  049%=      5-min Rain = 0
KCL1 150352Z 11007KT 26/15 A3018 RMK A01 T02620146  RH  049%=      5-min Rain = 0
KCL1 150353Z 11006KT 26/15 A3019 RMK A01 T02620146  RH  049%=      5-min Rain = 0
KCL1 150354Z 12007KT 26/15 A3019 RMK A01 T02610147  RH  049%=      5-min Rain = 0
KCL1 150355Z 12008KT 26/15 A3019 RMK A01 T02600148  RH  050%=      5-min Rain = 0
KCL1 150356Z 12008KT 26/15 A3019 RMK A01 T02600148  RH  050%=      5-min Rain = 0
KCL1 150357Z 12008KT 26/15 A3019 RMK A01 T02600150  RH  051%=      5-min Rain = 0
KCL1 150358Z 12007KT 26/15 A3019 RMK A01 T02600150  RH  051%=      5-min Rain = 0
KCL1 150359Z 12007KT 26/15 A3019 RMK A01 T02600150  RH  051%=      5-min Rain = 0
KCL1 150400Z 12006KT 26/15 A3019 RMK A01 T02600151  RH  051%=      5-min Rain = 0
KCL1 150401Z 12009KT 26/15 A3019 RMK A01 T02600151  RH  051%=      5-min Rain = 0
KCL1 150402Z 13008KT 26/15 A3019 RMK A01 T02600152  RH  051%=      5-min Rain = 0
KCL1 150403Z 12008KT 26/15 A3019 RMK A01 T02600152  RH  051%=      5-min Rain = 0
KCL1 150404Z 12007KT 26/15 A3019 RMK A01 T02610153  RH  051%=      5-min Rain = 0
KCL1 150405Z 12007KT 26/15 A3019 RMK A01 T02620152  RH  051%=      5-min Rain = 0
KCL1 150406Z 13008KT 26/15 A3019 RMK A01 T02620153  RH  051%=      5-min Rain = 0
KCL1 150407Z 12007KT 26/15 A3019 RMK A01 T02620153  RH  051%=      5-min Rain = 0
KCL1 150408Z 13007KT 26/15 A3019 RMK A01 T02620153  RH  051%=      5-min Rain = 0
KCL1 150409Z 12008KT 26/15 A3019 RMK A01 T02620153  RH  051%=      5-min Rain = 0
KCL1 150410Z 12008KT 26/15 A3019 RMK A01 T02620154  RH  051%=      5-min Rain = 0
KCL1 150411Z 12007KT 26/15 A3019 RMK A01 T02620154  RH  051%=      5-min Rain = 0
KCL1 150412Z 12008KT 26/15 A3019 RMK A01 T02610154  RH  051%=      5-min Rain = 0
KCL1 150413Z 12008KT 26/15 A3019 RMK A01 T02610154  RH  052%=      5-min Rain = 0
KCL1 150414Z 12007KT 26/15 A3019 RMK A01 T02610154  RH  052%=      5-min Rain = 0
KCL1 150415Z 12009KT 26/15 A3019 RMK A01 T02600154  RH  052%=      5-min Rain = 0
KCL1 150416Z 13008KT 26/15 A3019 RMK A01 T02600154  RH  052%=      5-min Rain = 0
KCL1 150417Z 13007KT 26/15 A3019 RMK A01 T02600154  RH  052%=      5-min Rain = 0
KCL1 150418Z 13006KT 26/15 A3019 RMK A01 T02600154  RH  052%=      5-min Rain = 0
KCL1 150419Z 13007KT 26/16 A3019 RMK A01 T02600155  RH  052%=      5-min Rain = 0
KCL1 150420Z 12008KT 26/15 A3019 RMK A01 T02590154  RH  052%=      5-min Rain = 0
KCL1 150421Z 13008KT 26/16 A3019 RMK A01 T02590155  RH  052%=      5-min Rain = 0
KCL1 150422Z 13009KT 26/15 A3019 RMK A01 T02590154  RH  052%=      5-min Rain = 0
KCL1 150423Z 14008KT 26/16 A3019 RMK A01 T02600155  RH  052%=      5-min Rain = 0
KCL1 150424Z 14006KT 26/16 A3019 RMK A01 T02600155  RH  052%=      5-min Rain = 0
KCL1 150425Z 14007KT 26/16 A3019 RMK A01 T02600155  RH  052%=      5-min Rain = 0
KCL1 150426Z 13007KT 26/16 A3019 RMK A01 T02600155  RH  052%=      5-min Rain = 0
KCL1 150427Z 14007KT 26/16 A3019 RMK A01 T02600155  RH  052%=      5-min Rain = 0
KCL1 150428Z 13007KT 26/16 A3019 RMK A01 T02590155  RH  053%=      5-min Rain = 0
KCL1 150429Z 13007KT 26/16 A3019 RMK A01 T02590155  RH  053%=      5-min Rain = 0
KCL1 150430Z 13007KT 26/16 A3019 RMK A01 T02590156  RH  053%=      5-min Rain = 0
KCL1 150431Z 13008KT 26/16 A3019 RMK A01 T02580155  RH  053%=      5-min Rain = 0
KCL1 150432Z 13008KT 26/16 A3019 RMK A01 T02580155  RH  053%=      5-min Rain = 0
KCL1 150433Z 13008KT 26/16 A3019 RMK A01 T02580155  RH  053%=      5-min Rain = 0
KCL1 150434Z 14008KT 26/16 A3019 RMK A01 T02580155  RH  053%=      5-min Rain = 0
KCL1 150435Z 13006KT 26/16 A3019 RMK A01 T02580155  RH  053%=      5-min Rain = 0
KCL1 150436Z 13007KT 26/16 A3019 RMK A01 T02580156  RH  053%=      5-min Rain = 0
KCL1 150437Z 13008KT 26/16 A3019 RMK A01 T02580156  RH  053%=      5-min Rain = 0
KCL1 150438Z 13008KT 26/16 A3019 RMK A01 T02570155  RH  053%=      5-min Rain = 0
KCL1 150439Z 13007KT 26/16 A3019 RMK A01 T02580155  RH  053%=      5-min Rain = 0
KCL1 150440Z 13008KT 26/16 A3019 RMK A01 T02570156  RH  053%=      5-min Rain = 0
KCL1 150441Z 13007KT 26/16 A3019 RMK A01 T02570156  RH  054%=      5-min Rain = 0
KCL1 150442Z 13008KT 26/16 A3019 RMK A01 T02560156  RH  054%=      5-min Rain = 0
KCL1 150443Z 13007KT 26/16 A3019 RMK A01 T02560156  RH  054%=      5-min Rain = 0
KCL1 150444Z 13008KT 26/16 A3019 RMK A01 T02560156  RH  054%=      5-min Rain = 0
KCL1 150445Z 13008KT 26/16 A3019 RMK A01 T02560156  RH  054%=      5-min Rain = 0
KCL1 150446Z 12007KT 26/16 A3019 RMK A01 T02560156  RH  054%=      5-min Rain = 0
KCL1 150447Z 12008KT 26/16 A3019 RMK A01 T02560156  RH  054%=      5-min Rain = 0
KCL1 150448Z 12007KT 26/16 A3019 RMK A01 T02560156  RH  054%=      5-min Rain = 0
KCL1 150449Z 12008KT 26/16 A3019 RMK A01 T02560156  RH  054%=      5-min Rain = 0
KCL1 150450Z 12009KT 26/16 A3019 RMK A01 T02550156  RH  054%=      5-min Rain = 0
KCL1 150451Z 12008KT 26/16 A3019 RMK A01 T02550156  RH  054%=      5-min Rain = 0
KCL1 150452Z 12009KT 26/16 A3019 RMK A01 T02550156  RH  054%=      5-min Rain = 0
KCL1 150453Z 12008KT 26/16 A3019 RMK A01 T02550156  RH  054%=      5-min Rain = 0
KCL1 150454Z 11009KT 26/16 A3019 RMK A01 T02550156  RH  054%=      5-min Rain = 0
KCL1 150455Z 12008KT 26/16 A3019 RMK A01 T02560156  RH  054%=      5-min Rain = 0
KCL1 150456Z 12008KT 26/16 A3019 RMK A01 T02560156  RH  054%=      5-min Rain = 0
KCL1 150457Z 12008KT 26/16 A3019 RMK A01 T02560156  RH  054%=      5-min Rain = 0
KCL1 150458Z 12008KT 26/16 A3019 RMK A01 T02560157  RH  054%=      5-min Rain = 0
KCL1 150459Z 12008KT 26/16 A3019 RMK A01 T02550156  RH  054%=      5-min Rain = 0

Page generated in 0.1211 seconds.